<?xml version="1.0" encoding="UTF-8" standalone="no" ?>
<gpx xmlns="http://www.topografix.com/GPX/1/1" xmlns:xsi="http://www.w3.org/2001/XMLSchema-instance" xsi:schemaLocation="http://www.topografix.com/GPX/1/1 http://www.topografix.com/GPX/1/1/gpx.xsd" version="1.1" creator="VisuGPX - https://www.visugpx.com">
  <metadata>
    <name>vtt circuit n°6 le fuilet g3</name>
    <desc><![CDATA[sortie par beau temps ,sans pluie.un circuit par mares et par bouillons]]></desc>
  </metadata>
  <trk>
    <name><![CDATA[2018-03-10-15-13-49 on GPSies.com]]></name>
    <trkseg>
      <trkpt lat="47.26971" lon="-1.13656">
        <ele>197</ele>
        <time>2018-03-10T15:13:49Z</time>
      </trkpt>
      <trkpt lat="47.26971" lon="-1.13655">
        <ele>197</ele>
        <time>2018-03-10T15:14:00Z</time>
      </trkpt>
      <trkpt lat="47.26975" lon="-1.13649">
        <ele>197</ele>
        <time>2018-03-10T15:14:03Z</time>
      </trkpt>
      <trkpt lat="47.26977" lon="-1.13647">
        <ele>197</ele>
        <time>2018-03-10T15:14:04Z</time>
      </trkpt>
      <trkpt lat="47.26988" lon="-1.13627">
        <ele>197</ele>
        <time>2018-03-10T15:14:10Z</time>
      </trkpt>
      <trkpt lat="47.26993" lon="-1.136">
        <ele>197</ele>
        <time>2018-03-10T15:14:18Z</time>
      </trkpt>
      <trkpt lat="47.26988" lon="-1.13585">
        <ele>197</ele>
        <time>2018-03-10T15:14:52Z</time>
      </trkpt>
      <trkpt lat="47.26988" lon="-1.13578">
        <ele>197</ele>
        <time>2018-03-10T15:14:55Z</time>
      </trkpt>
      <trkpt lat="47.26986" lon="-1.13568">
        <ele>197</ele>
        <time>2018-03-10T15:14:58Z</time>
      </trkpt>
      <trkpt lat="47.26984" lon="-1.13561">
        <ele>197</ele>
        <time>2018-03-10T15:15:00Z</time>
      </trkpt>
      <trkpt lat="47.26983" lon="-1.13541">
        <ele>197</ele>
        <time>2018-03-10T15:15:04Z</time>
      </trkpt>
      <trkpt lat="47.26983" lon="-1.13527">
        <ele>196</ele>
        <time>2018-03-10T15:15:07Z</time>
      </trkpt>
      <trkpt lat="47.26985" lon="-1.13514">
        <ele>196</ele>
        <time>2018-03-10T15:15:10Z</time>
      </trkpt>
      <trkpt lat="47.26987" lon="-1.13499">
        <ele>196</ele>
        <time>2018-03-10T15:15:14Z</time>
      </trkpt>
      <trkpt lat="47.26985" lon="-1.13496">
        <ele>195</ele>
        <time>2018-03-10T15:15:15Z</time>
      </trkpt>
      <trkpt lat="47.26974" lon="-1.13487">
        <ele>195</ele>
        <time>2018-03-10T15:15:19Z</time>
      </trkpt>
      <trkpt lat="47.26971" lon="-1.13486">
        <ele>195</ele>
        <time>2018-03-10T15:15:20Z</time>
      </trkpt>
      <trkpt lat="47.26949" lon="-1.1348">
        <ele>195</ele>
        <time>2018-03-10T15:15:27Z</time>
      </trkpt>
      <trkpt lat="47.26934" lon="-1.13474">
        <ele>195</ele>
        <time>2018-03-10T15:15:34Z</time>
      </trkpt>
      <trkpt lat="47.26926" lon="-1.13466">
        <ele>195</ele>
        <time>2018-03-10T15:15:40Z</time>
      </trkpt>
      <trkpt lat="47.26923" lon="-1.13467">
        <ele>195</ele>
        <time>2018-03-10T15:15:42Z</time>
      </trkpt>
      <trkpt lat="47.26919" lon="-1.13471">
        <ele>195</ele>
        <time>2018-03-10T15:15:45Z</time>
      </trkpt>
      <trkpt lat="47.26913" lon="-1.13478">
        <ele>195</ele>
        <time>2018-03-10T15:15:49Z</time>
      </trkpt>
      <trkpt lat="47.2691" lon="-1.1348">
        <ele>195</ele>
        <time>2018-03-10T15:15:51Z</time>
      </trkpt>
      <trkpt lat="47.26887" lon="-1.13505">
        <ele>195</ele>
        <time>2018-03-10T15:16:50Z</time>
      </trkpt>
      <trkpt lat="47.26881" lon="-1.13506">
        <ele>195</ele>
        <time>2018-03-10T15:16:57Z</time>
      </trkpt>
      <trkpt lat="47.26869" lon="-1.1351">
        <ele>195</ele>
        <time>2018-03-10T15:17:03Z</time>
      </trkpt>
      <trkpt lat="47.26866" lon="-1.13511">
        <ele>195</ele>
        <time>2018-03-10T15:17:05Z</time>
      </trkpt>
      <trkpt lat="47.26862" lon="-1.13519">
        <ele>195</ele>
        <time>2018-03-10T15:17:10Z</time>
      </trkpt>
      <trkpt lat="47.26856" lon="-1.13524">
        <ele>194</ele>
        <time>2018-03-10T15:17:40Z</time>
      </trkpt>
      <trkpt lat="47.26854" lon="-1.13526">
        <ele>194</ele>
        <time>2018-03-10T15:17:41Z</time>
      </trkpt>
      <trkpt lat="47.26846" lon="-1.13526">
        <ele>194</ele>
        <time>2018-03-10T15:17:46Z</time>
      </trkpt>
      <trkpt lat="47.26842" lon="-1.13524">
        <ele>194</ele>
        <time>2018-03-10T15:17:49Z</time>
      </trkpt>
      <trkpt lat="47.26828" lon="-1.13527">
        <ele>194</ele>
        <time>2018-03-10T15:18:13Z</time>
      </trkpt>
      <trkpt lat="47.26819" lon="-1.13544">
        <ele>194</ele>
        <time>2018-03-10T15:18:19Z</time>
      </trkpt>
      <trkpt lat="47.26808" lon="-1.13562">
        <ele>194</ele>
        <time>2018-03-10T15:18:24Z</time>
      </trkpt>
      <trkpt lat="47.26793" lon="-1.13579">
        <ele>194</ele>
        <time>2018-03-10T15:18:30Z</time>
      </trkpt>
      <trkpt lat="47.26778" lon="-1.13592">
        <ele>194</ele>
        <time>2018-03-10T15:18:35Z</time>
      </trkpt>
      <trkpt lat="47.26755" lon="-1.13613">
        <ele>194</ele>
        <time>2018-03-10T15:18:43Z</time>
      </trkpt>
      <trkpt lat="47.26735" lon="-1.13622">
        <ele>194</ele>
        <time>2018-03-10T15:18:49Z</time>
      </trkpt>
      <trkpt lat="47.26732" lon="-1.13622">
        <ele>194</ele>
        <time>2018-03-10T15:18:50Z</time>
      </trkpt>
      <trkpt lat="47.26723" lon="-1.13618">
        <ele>194</ele>
        <time>2018-03-10T15:18:53Z</time>
      </trkpt>
      <trkpt lat="47.26709" lon="-1.13622">
        <ele>194</ele>
        <time>2018-03-10T15:18:57Z</time>
      </trkpt>
      <trkpt lat="47.26677" lon="-1.13637">
        <ele>195</ele>
        <time>2018-03-10T15:19:06Z</time>
      </trkpt>
      <trkpt lat="47.26649" lon="-1.13651">
        <ele>194</ele>
        <time>2018-03-10T15:19:14Z</time>
      </trkpt>
      <trkpt lat="47.26621" lon="-1.13667">
        <ele>194</ele>
        <time>2018-03-10T15:19:22Z</time>
      </trkpt>
      <trkpt lat="47.26597" lon="-1.1368">
        <ele>194</ele>
        <time>2018-03-10T15:19:29Z</time>
      </trkpt>
      <trkpt lat="47.2659" lon="-1.13684">
        <ele>194</ele>
        <time>2018-03-10T15:19:31Z</time>
      </trkpt>
      <trkpt lat="47.26577" lon="-1.13691">
        <ele>194</ele>
        <time>2018-03-10T15:19:35Z</time>
      </trkpt>
      <trkpt lat="47.26574" lon="-1.13692">
        <ele>194</ele>
        <time>2018-03-10T15:19:36Z</time>
      </trkpt>
      <trkpt lat="47.26558" lon="-1.13705">
        <ele>193</ele>
        <time>2018-03-10T15:19:42Z</time>
      </trkpt>
      <trkpt lat="47.26547" lon="-1.13721">
        <ele>193</ele>
        <time>2018-03-10T15:19:47Z</time>
      </trkpt>
      <trkpt lat="47.26545" lon="-1.13725">
        <ele>193</ele>
        <time>2018-03-10T15:19:48Z</time>
      </trkpt>
      <trkpt lat="47.26532" lon="-1.13735">
        <ele>192</ele>
        <time>2018-03-10T15:19:53Z</time>
      </trkpt>
      <trkpt lat="47.26516" lon="-1.13744">
        <ele>192</ele>
        <time>2018-03-10T15:20:00Z</time>
      </trkpt>
      <trkpt lat="47.26514" lon="-1.13743">
        <ele>192</ele>
        <time>2018-03-10T15:20:01Z</time>
      </trkpt>
      <trkpt lat="47.26504" lon="-1.13738">
        <ele>192</ele>
        <time>2018-03-10T15:20:05Z</time>
      </trkpt>
      <trkpt lat="47.26495" lon="-1.13736">
        <ele>192</ele>
        <time>2018-03-10T15:20:08Z</time>
      </trkpt>
      <trkpt lat="47.26489" lon="-1.13733">
        <ele>192</ele>
        <time>2018-03-10T15:20:10Z</time>
      </trkpt>
      <trkpt lat="47.26464" lon="-1.13723">
        <ele>193</ele>
        <time>2018-03-10T15:20:16Z</time>
      </trkpt>
      <trkpt lat="47.26441" lon="-1.13712">
        <ele>194</ele>
        <time>2018-03-10T15:20:22Z</time>
      </trkpt>
      <trkpt lat="47.26431" lon="-1.13705">
        <ele>194</ele>
        <time>2018-03-10T15:20:25Z</time>
      </trkpt>
      <trkpt lat="47.26417" lon="-1.13696">
        <ele>194</ele>
        <time>2018-03-10T15:20:30Z</time>
      </trkpt>
      <trkpt lat="47.26406" lon="-1.13688">
        <ele>195</ele>
        <time>2018-03-10T15:20:36Z</time>
      </trkpt>
      <trkpt lat="47.26399" lon="-1.1368">
        <ele>195</ele>
        <time>2018-03-10T15:21:20Z</time>
      </trkpt>
      <trkpt lat="47.26399" lon="-1.13677">
        <ele>195</ele>
        <time>2018-03-10T15:21:21Z</time>
      </trkpt>
      <trkpt lat="47.264" lon="-1.13652">
        <ele>195</ele>
        <time>2018-03-10T15:21:27Z</time>
      </trkpt>
      <trkpt lat="47.26392" lon="-1.13623">
        <ele>195</ele>
        <time>2018-03-10T15:21:33Z</time>
      </trkpt>
      <trkpt lat="47.2638" lon="-1.13609">
        <ele>195</ele>
        <time>2018-03-10T15:21:39Z</time>
      </trkpt>
      <trkpt lat="47.2637" lon="-1.13597">
        <ele>195</ele>
        <time>2018-03-10T15:21:44Z</time>
      </trkpt>
      <trkpt lat="47.26369" lon="-1.13593">
        <ele>195</ele>
        <time>2018-03-10T15:21:45Z</time>
      </trkpt>
      <trkpt lat="47.2637" lon="-1.13571">
        <ele>196</ele>
        <time>2018-03-10T15:21:49Z</time>
      </trkpt>
      <trkpt lat="47.2637" lon="-1.13546">
        <ele>196</ele>
        <time>2018-03-10T15:21:54Z</time>
      </trkpt>
      <trkpt lat="47.26371" lon="-1.1353">
        <ele>196</ele>
        <time>2018-03-10T15:21:57Z</time>
      </trkpt>
      <trkpt lat="47.26373" lon="-1.13478">
        <ele>197</ele>
        <time>2018-03-10T15:22:07Z</time>
      </trkpt>
      <trkpt lat="47.26374" lon="-1.13462">
        <ele>197</ele>
        <time>2018-03-10T15:22:10Z</time>
      </trkpt>
      <trkpt lat="47.26371" lon="-1.13427">
        <ele>197</ele>
        <time>2018-03-10T15:22:17Z</time>
      </trkpt>
      <trkpt lat="47.26362" lon="-1.13423">
        <ele>197</ele>
        <time>2018-03-10T15:22:20Z</time>
      </trkpt>
      <trkpt lat="47.26346" lon="-1.13425">
        <ele>198</ele>
        <time>2018-03-10T15:22:24Z</time>
      </trkpt>
      <trkpt lat="47.26342" lon="-1.13425">
        <ele>198</ele>
        <time>2018-03-10T15:22:25Z</time>
      </trkpt>
      <trkpt lat="47.26339" lon="-1.13424">
        <ele>198</ele>
        <time>2018-03-10T15:22:26Z</time>
      </trkpt>
      <trkpt lat="47.26308" lon="-1.13424">
        <ele>199</ele>
        <time>2018-03-10T15:22:35Z</time>
      </trkpt>
      <trkpt lat="47.26281" lon="-1.13421">
        <ele>199</ele>
        <time>2018-03-10T15:22:43Z</time>
      </trkpt>
      <trkpt lat="47.26278" lon="-1.13421">
        <ele>199</ele>
        <time>2018-03-10T15:22:44Z</time>
      </trkpt>
      <trkpt lat="47.26251" lon="-1.13417">
        <ele>200</ele>
        <time>2018-03-10T15:22:52Z</time>
      </trkpt>
      <trkpt lat="47.26225" lon="-1.13411">
        <ele>200</ele>
        <time>2018-03-10T15:23:00Z</time>
      </trkpt>
      <trkpt lat="47.26198" lon="-1.13404">
        <ele>200</ele>
        <time>2018-03-10T15:23:08Z</time>
      </trkpt>
      <trkpt lat="47.26168" lon="-1.13398">
        <ele>201</ele>
        <time>2018-03-10T15:23:17Z</time>
      </trkpt>
      <trkpt lat="47.26141" lon="-1.1339">
        <ele>201</ele>
        <time>2018-03-10T15:23:25Z</time>
      </trkpt>
      <trkpt lat="47.2611" lon="-1.13382">
        <ele>201</ele>
        <time>2018-03-10T15:23:34Z</time>
      </trkpt>
      <trkpt lat="47.26087" lon="-1.13375">
        <ele>201</ele>
        <time>2018-03-10T15:23:41Z</time>
      </trkpt>
      <trkpt lat="47.26063" lon="-1.13369">
        <ele>201</ele>
        <time>2018-03-10T15:23:48Z</time>
      </trkpt>
      <trkpt lat="47.2604" lon="-1.13366">
        <ele>201</ele>
        <time>2018-03-10T15:23:55Z</time>
      </trkpt>
      <trkpt lat="47.26029" lon="-1.13365">
        <ele>200</ele>
        <time>2018-03-10T15:24:01Z</time>
      </trkpt>
      <trkpt lat="47.26022" lon="-1.1335">
        <ele>200</ele>
        <time>2018-03-10T15:24:07Z</time>
      </trkpt>
      <trkpt lat="47.26021" lon="-1.13348">
        <ele>200</ele>
        <time>2018-03-10T15:24:08Z</time>
      </trkpt>
      <trkpt lat="47.26016" lon="-1.13339">
        <ele>200</ele>
        <time>2018-03-10T15:24:11Z</time>
      </trkpt>
      <trkpt lat="47.26004" lon="-1.13314">
        <ele>200</ele>
        <time>2018-03-10T15:24:18Z</time>
      </trkpt>
      <trkpt lat="47.25996" lon="-1.13297">
        <ele>199</ele>
        <time>2018-03-10T15:24:24Z</time>
      </trkpt>
      <trkpt lat="47.25986" lon="-1.13279">
        <ele>199</ele>
        <time>2018-03-10T15:24:30Z</time>
      </trkpt>
      <trkpt lat="47.25977" lon="-1.1326">
        <ele>199</ele>
        <time>2018-03-10T15:24:36Z</time>
      </trkpt>
      <trkpt lat="47.25975" lon="-1.13257">
        <ele>199</ele>
        <time>2018-03-10T15:24:37Z</time>
      </trkpt>
      <trkpt lat="47.25968" lon="-1.13243">
        <ele>199</ele>
        <time>2018-03-10T15:24:42Z</time>
      </trkpt>
      <trkpt lat="47.25967" lon="-1.13241">
        <ele>199</ele>
        <time>2018-03-10T15:24:43Z</time>
      </trkpt>
      <trkpt lat="47.25963" lon="-1.13231">
        <ele>199</ele>
        <time>2018-03-10T15:24:46Z</time>
      </trkpt>
      <trkpt lat="47.2596" lon="-1.13225">
        <ele>199</ele>
        <time>2018-03-10T15:24:48Z</time>
      </trkpt>
      <trkpt lat="47.25951" lon="-1.13207">
        <ele>199</ele>
        <time>2018-03-10T15:24:53Z</time>
      </trkpt>
      <trkpt lat="47.25939" lon="-1.13186">
        <ele>199</ele>
        <time>2018-03-10T15:24:59Z</time>
      </trkpt>
      <trkpt lat="47.25927" lon="-1.13166">
        <ele>199</ele>
        <time>2018-03-10T15:25:05Z</time>
      </trkpt>
      <trkpt lat="47.25912" lon="-1.13138">
        <ele>200</ele>
        <time>2018-03-10T15:25:13Z</time>
      </trkpt>
      <trkpt lat="47.25899" lon="-1.13116">
        <ele>200</ele>
        <time>2018-03-10T15:25:20Z</time>
      </trkpt>
      <trkpt lat="47.25888" lon="-1.13096">
        <ele>200</ele>
        <time>2018-03-10T15:25:26Z</time>
      </trkpt>
      <trkpt lat="47.25883" lon="-1.13086">
        <ele>200</ele>
        <time>2018-03-10T15:25:29Z</time>
      </trkpt>
      <trkpt lat="47.25876" lon="-1.13074">
        <ele>201</ele>
        <time>2018-03-10T15:25:33Z</time>
      </trkpt>
      <trkpt lat="47.25865" lon="-1.13053">
        <ele>201</ele>
        <time>2018-03-10T15:25:39Z</time>
      </trkpt>
      <trkpt lat="47.25854" lon="-1.1303">
        <ele>201</ele>
        <time>2018-03-10T15:25:46Z</time>
      </trkpt>
      <trkpt lat="47.25841" lon="-1.13006">
        <ele>202</ele>
        <time>2018-03-10T15:25:53Z</time>
      </trkpt>
      <trkpt lat="47.25833" lon="-1.12989">
        <ele>202</ele>
        <time>2018-03-10T15:25:58Z</time>
      </trkpt>
      <trkpt lat="47.25827" lon="-1.12977">
        <ele>202</ele>
        <time>2018-03-10T15:26:01Z</time>
      </trkpt>
      <trkpt lat="47.25816" lon="-1.12957">
        <ele>203</ele>
        <time>2018-03-10T15:26:06Z</time>
      </trkpt>
      <trkpt lat="47.258" lon="-1.12934">
        <ele>203</ele>
        <time>2018-03-10T15:26:13Z</time>
      </trkpt>
      <trkpt lat="47.25789" lon="-1.12916">
        <ele>203</ele>
        <time>2018-03-10T15:26:20Z</time>
      </trkpt>
      <trkpt lat="47.25786" lon="-1.12912">
        <ele>203</ele>
        <time>2018-03-10T15:26:22Z</time>
      </trkpt>
      <trkpt lat="47.25782" lon="-1.12906">
        <ele>204</ele>
        <time>2018-03-10T15:27:44Z</time>
      </trkpt>
      <trkpt lat="47.25771" lon="-1.1289">
        <ele>204</ele>
        <time>2018-03-10T15:27:49Z</time>
      </trkpt>
      <trkpt lat="47.25748" lon="-1.12865">
        <ele>204</ele>
        <time>2018-03-10T15:27:56Z</time>
      </trkpt>
      <trkpt lat="47.25733" lon="-1.12847">
        <ele>205</ele>
        <time>2018-03-10T15:28:00Z</time>
      </trkpt>
      <trkpt lat="47.25719" lon="-1.12832">
        <ele>205</ele>
        <time>2018-03-10T15:28:04Z</time>
      </trkpt>
      <trkpt lat="47.25685" lon="-1.12794">
        <ele>205</ele>
        <time>2018-03-10T15:28:13Z</time>
      </trkpt>
      <trkpt lat="47.25665" lon="-1.12777">
        <ele>205</ele>
        <time>2018-03-10T15:28:18Z</time>
      </trkpt>
      <trkpt lat="47.25661" lon="-1.12774">
        <ele>205</ele>
        <time>2018-03-10T15:28:19Z</time>
      </trkpt>
      <trkpt lat="47.25631" lon="-1.1276">
        <ele>205</ele>
        <time>2018-03-10T15:28:25Z</time>
      </trkpt>
      <trkpt lat="47.25593" lon="-1.12744">
        <ele>205</ele>
        <time>2018-03-10T15:28:32Z</time>
      </trkpt>
      <trkpt lat="47.25545" lon="-1.12722">
        <ele>204</ele>
        <time>2018-03-10T15:28:41Z</time>
      </trkpt>
      <trkpt lat="47.25518" lon="-1.12704">
        <ele>203</ele>
        <time>2018-03-10T15:28:46Z</time>
      </trkpt>
      <trkpt lat="47.25508" lon="-1.12695">
        <ele>203</ele>
        <time>2018-03-10T15:28:48Z</time>
      </trkpt>
      <trkpt lat="47.25481" lon="-1.12663">
        <ele>202</ele>
        <time>2018-03-10T15:28:54Z</time>
      </trkpt>
      <trkpt lat="47.25472" lon="-1.12652">
        <ele>202</ele>
        <time>2018-03-10T15:28:56Z</time>
      </trkpt>
      <trkpt lat="47.25444" lon="-1.12616">
        <ele>201</ele>
        <time>2018-03-10T15:29:02Z</time>
      </trkpt>
      <trkpt lat="47.25439" lon="-1.1261">
        <ele>201</ele>
        <time>2018-03-10T15:29:03Z</time>
      </trkpt>
      <trkpt lat="47.2542" lon="-1.12581">
        <ele>200</ele>
        <time>2018-03-10T15:29:07Z</time>
      </trkpt>
      <trkpt lat="47.25404" lon="-1.12558">
        <ele>199</ele>
        <time>2018-03-10T15:29:10Z</time>
      </trkpt>
      <trkpt lat="47.25389" lon="-1.12536">
        <ele>197</ele>
        <time>2018-03-10T15:29:13Z</time>
      </trkpt>
      <trkpt lat="47.25368" lon="-1.12505">
        <ele>196</ele>
        <time>2018-03-10T15:29:17Z</time>
      </trkpt>
      <trkpt lat="47.25358" lon="-1.1249">
        <ele>196</ele>
        <time>2018-03-10T15:29:19Z</time>
      </trkpt>
      <trkpt lat="47.25347" lon="-1.12475">
        <ele>195</ele>
        <time>2018-03-10T15:29:21Z</time>
      </trkpt>
      <trkpt lat="47.2533" lon="-1.12445">
        <ele>194</ele>
        <time>2018-03-10T15:29:25Z</time>
      </trkpt>
      <trkpt lat="47.25327" lon="-1.12437">
        <ele>194</ele>
        <time>2018-03-10T15:29:26Z</time>
      </trkpt>
      <trkpt lat="47.25303" lon="-1.12388">
        <ele>194</ele>
        <time>2018-03-10T15:29:33Z</time>
      </trkpt>
      <trkpt lat="47.25276" lon="-1.12335">
        <ele>195</ele>
        <time>2018-03-10T15:29:41Z</time>
      </trkpt>
      <trkpt lat="47.25272" lon="-1.1233">
        <ele>195</ele>
        <time>2018-03-10T15:29:42Z</time>
      </trkpt>
      <trkpt lat="47.25247" lon="-1.12302">
        <ele>196</ele>
        <time>2018-03-10T15:29:48Z</time>
      </trkpt>
      <trkpt lat="47.25232" lon="-1.1228">
        <ele>196</ele>
        <time>2018-03-10T15:29:54Z</time>
      </trkpt>
      <trkpt lat="47.25224" lon="-1.12263">
        <ele>197</ele>
        <time>2018-03-10T15:30:00Z</time>
      </trkpt>
      <trkpt lat="47.25223" lon="-1.1226">
        <ele>197</ele>
        <time>2018-03-10T15:30:01Z</time>
      </trkpt>
      <trkpt lat="47.25215" lon="-1.12243">
        <ele>197</ele>
        <time>2018-03-10T15:30:06Z</time>
      </trkpt>
      <trkpt lat="47.25212" lon="-1.12236">
        <ele>197</ele>
        <time>2018-03-10T15:30:08Z</time>
      </trkpt>
      <trkpt lat="47.25204" lon="-1.12218">
        <ele>198</ele>
        <time>2018-03-10T15:30:14Z</time>
      </trkpt>
      <trkpt lat="47.25202" lon="-1.12215">
        <ele>198</ele>
        <time>2018-03-10T15:30:15Z</time>
      </trkpt>
      <trkpt lat="47.25195" lon="-1.122">
        <ele>198</ele>
        <time>2018-03-10T15:30:20Z</time>
      </trkpt>
      <trkpt lat="47.25184" lon="-1.12182">
        <ele>198</ele>
        <time>2018-03-10T15:30:26Z</time>
      </trkpt>
      <trkpt lat="47.25169" lon="-1.12165">
        <ele>199</ele>
        <time>2018-03-10T15:30:32Z</time>
      </trkpt>
      <trkpt lat="47.25167" lon="-1.12163">
        <ele>199</ele>
        <time>2018-03-10T15:30:33Z</time>
      </trkpt>
      <trkpt lat="47.25145" lon="-1.12137">
        <ele>199</ele>
        <time>2018-03-10T15:30:43Z</time>
      </trkpt>
      <trkpt lat="47.25126" lon="-1.12116">
        <ele>200</ele>
        <time>2018-03-10T15:30:51Z</time>
      </trkpt>
      <trkpt lat="47.25107" lon="-1.12091">
        <ele>200</ele>
        <time>2018-03-10T15:31:00Z</time>
      </trkpt>
      <trkpt lat="47.25105" lon="-1.12088">
        <ele>200</ele>
        <time>2018-03-10T15:31:01Z</time>
      </trkpt>
      <trkpt lat="47.25096" lon="-1.12078">
        <ele>200</ele>
        <time>2018-03-10T15:31:06Z</time>
      </trkpt>
      <trkpt lat="47.25088" lon="-1.12063">
        <ele>201</ele>
        <time>2018-03-10T15:31:13Z</time>
      </trkpt>
      <trkpt lat="47.25088" lon="-1.12054">
        <ele>201</ele>
        <time>2018-03-10T15:31:17Z</time>
      </trkpt>
      <trkpt lat="47.25088" lon="-1.12048">
        <ele>201</ele>
        <time>2018-03-10T15:31:19Z</time>
      </trkpt>
      <trkpt lat="47.2508" lon="-1.12038">
        <ele>201</ele>
        <time>2018-03-10T15:31:23Z</time>
      </trkpt>
      <trkpt lat="47.25078" lon="-1.12035">
        <ele>201</ele>
        <time>2018-03-10T15:31:24Z</time>
      </trkpt>
      <trkpt lat="47.25057" lon="-1.12019">
        <ele>201</ele>
        <time>2018-03-10T15:31:32Z</time>
      </trkpt>
      <trkpt lat="47.25029" lon="-1.12008">
        <ele>202</ele>
        <time>2018-03-10T15:31:42Z</time>
      </trkpt>
      <trkpt lat="47.2502" lon="-1.12006">
        <ele>202</ele>
        <time>2018-03-10T15:31:45Z</time>
      </trkpt>
      <trkpt lat="47.25009" lon="-1.12002">
        <ele>203</ele>
        <time>2018-03-10T15:31:50Z</time>
      </trkpt>
      <trkpt lat="47.25004" lon="-1.12003">
        <ele>204</ele>
        <time>2018-03-10T15:33:42Z</time>
      </trkpt>
      <trkpt lat="47.25002" lon="-1.12001">
        <ele>204</ele>
        <time>2018-03-10T15:33:43Z</time>
      </trkpt>
      <trkpt lat="47.24995" lon="-1.11995">
        <ele>204</ele>
        <time>2018-03-10T15:33:46Z</time>
      </trkpt>
      <trkpt lat="47.24973" lon="-1.11982">
        <ele>204</ele>
        <time>2018-03-10T15:33:53Z</time>
      </trkpt>
      <trkpt lat="47.24953" lon="-1.11969">
        <ele>204</ele>
        <time>2018-03-10T15:33:59Z</time>
      </trkpt>
      <trkpt lat="47.24917" lon="-1.11946">
        <ele>205</ele>
        <time>2018-03-10T15:34:10Z</time>
      </trkpt>
      <trkpt lat="47.24905" lon="-1.11939">
        <ele>205</ele>
        <time>2018-03-10T15:34:13Z</time>
      </trkpt>
      <trkpt lat="47.24884" lon="-1.11925">
        <ele>205</ele>
        <time>2018-03-10T15:34:19Z</time>
      </trkpt>
      <trkpt lat="47.24852" lon="-1.11902">
        <ele>205</ele>
        <time>2018-03-10T15:34:27Z</time>
      </trkpt>
      <trkpt lat="47.24834" lon="-1.11883">
        <ele>204</ele>
        <time>2018-03-10T15:34:32Z</time>
      </trkpt>
      <trkpt lat="47.24828" lon="-1.11873">
        <ele>204</ele>
        <time>2018-03-10T15:34:34Z</time>
      </trkpt>
      <trkpt lat="47.24819" lon="-1.11859">
        <ele>204</ele>
        <time>2018-03-10T15:34:37Z</time>
      </trkpt>
      <trkpt lat="47.24803" lon="-1.11829">
        <ele>204</ele>
        <time>2018-03-10T15:34:43Z</time>
      </trkpt>
      <trkpt lat="47.24784" lon="-1.11789">
        <ele>203</ele>
        <time>2018-03-10T15:34:50Z</time>
      </trkpt>
      <trkpt lat="47.24764" lon="-1.11748">
        <ele>203</ele>
        <time>2018-03-10T15:34:57Z</time>
      </trkpt>
      <trkpt lat="47.24741" lon="-1.11703">
        <ele>203</ele>
        <time>2018-03-10T15:35:05Z</time>
      </trkpt>
      <trkpt lat="47.24723" lon="-1.11666">
        <ele>203</ele>
        <time>2018-03-10T15:35:12Z</time>
      </trkpt>
      <trkpt lat="47.24704" lon="-1.11634">
        <ele>203</ele>
        <time>2018-03-10T15:35:19Z</time>
      </trkpt>
      <trkpt lat="47.24685" lon="-1.11603">
        <ele>203</ele>
        <time>2018-03-10T15:35:27Z</time>
      </trkpt>
      <trkpt lat="47.2467" lon="-1.1158">
        <ele>204</ele>
        <time>2018-03-10T15:35:35Z</time>
      </trkpt>
      <trkpt lat="47.24667" lon="-1.11581">
        <ele>204</ele>
        <time>2018-03-10T15:35:37Z</time>
      </trkpt>
      <trkpt lat="47.24665" lon="-1.11585">
        <ele>204</ele>
        <time>2018-03-10T15:35:39Z</time>
      </trkpt>
      <trkpt lat="47.24665" lon="-1.11601">
        <ele>203</ele>
        <time>2018-03-10T15:35:44Z</time>
      </trkpt>
      <trkpt lat="47.24665" lon="-1.1161">
        <ele>203</ele>
        <time>2018-03-10T15:35:47Z</time>
      </trkpt>
      <trkpt lat="47.24664" lon="-1.11623">
        <ele>203</ele>
        <time>2018-03-10T15:35:51Z</time>
      </trkpt>
      <trkpt lat="47.24662" lon="-1.11651">
        <ele>203</ele>
        <time>2018-03-10T15:35:58Z</time>
      </trkpt>
      <trkpt lat="47.2466" lon="-1.11685">
        <ele>202</ele>
        <time>2018-03-10T15:36:06Z</time>
      </trkpt>
      <trkpt lat="47.24658" lon="-1.11709">
        <ele>202</ele>
        <time>2018-03-10T15:36:12Z</time>
      </trkpt>
      <trkpt lat="47.24656" lon="-1.11742">
        <ele>201</ele>
        <time>2018-03-10T15:36:21Z</time>
      </trkpt>
      <trkpt lat="47.24655" lon="-1.1176">
        <ele>201</ele>
        <time>2018-03-10T15:36:26Z</time>
      </trkpt>
      <trkpt lat="47.24655" lon="-1.11772">
        <ele>201</ele>
        <time>2018-03-10T15:36:29Z</time>
      </trkpt>
      <trkpt lat="47.24654" lon="-1.11798">
        <ele>201</ele>
        <time>2018-03-10T15:36:37Z</time>
      </trkpt>
      <trkpt lat="47.24653" lon="-1.11814">
        <ele>200</ele>
        <time>2018-03-10T15:36:44Z</time>
      </trkpt>
      <trkpt lat="47.24651" lon="-1.11833">
        <ele>200</ele>
        <time>2018-03-10T15:36:50Z</time>
      </trkpt>
      <trkpt lat="47.24649" lon="-1.11852">
        <ele>200</ele>
        <time>2018-03-10T15:36:56Z</time>
      </trkpt>
      <trkpt lat="47.24648" lon="-1.11878">
        <ele>200</ele>
        <time>2018-03-10T15:37:03Z</time>
      </trkpt>
      <trkpt lat="47.24646" lon="-1.11898">
        <ele>200</ele>
        <time>2018-03-10T15:37:09Z</time>
      </trkpt>
      <trkpt lat="47.24643" lon="-1.11918">
        <ele>200</ele>
        <time>2018-03-10T15:37:15Z</time>
      </trkpt>
      <trkpt lat="47.24642" lon="-1.11929">
        <ele>200</ele>
        <time>2018-03-10T15:37:21Z</time>
      </trkpt>
      <trkpt lat="47.24642" lon="-1.11935">
        <ele>200</ele>
        <time>2018-03-10T15:37:24Z</time>
      </trkpt>
      <trkpt lat="47.24641" lon="-1.11947">
        <ele>200</ele>
        <time>2018-03-10T15:37:28Z</time>
      </trkpt>
      <trkpt lat="47.24639" lon="-1.11973">
        <ele>200</ele>
        <time>2018-03-10T15:37:36Z</time>
      </trkpt>
      <trkpt lat="47.24638" lon="-1.11994">
        <ele>200</ele>
        <time>2018-03-10T15:37:43Z</time>
      </trkpt>
      <trkpt lat="47.24637" lon="-1.12007">
        <ele>200</ele>
        <time>2018-03-10T15:37:50Z</time>
      </trkpt>
      <trkpt lat="47.24635" lon="-1.12025">
        <ele>200</ele>
        <time>2018-03-10T15:37:57Z</time>
      </trkpt>
      <trkpt lat="47.24633" lon="-1.12046">
        <ele>200</ele>
        <time>2018-03-10T15:38:04Z</time>
      </trkpt>
      <trkpt lat="47.24628" lon="-1.12057">
        <ele>200</ele>
        <time>2018-03-10T15:38:10Z</time>
      </trkpt>
      <trkpt lat="47.24619" lon="-1.12057">
        <ele>200</ele>
        <time>2018-03-10T15:38:16Z</time>
      </trkpt>
      <trkpt lat="47.24606" lon="-1.12054">
        <ele>200</ele>
        <time>2018-03-10T15:38:23Z</time>
      </trkpt>
      <trkpt lat="47.24576" lon="-1.12046">
        <ele>199</ele>
        <time>2018-03-10T15:38:48Z</time>
      </trkpt>
      <trkpt lat="47.24568" lon="-1.12042">
        <ele>199</ele>
        <time>2018-03-10T15:38:52Z</time>
      </trkpt>
      <trkpt lat="47.24554" lon="-1.12038">
        <ele>199</ele>
        <time>2018-03-10T15:38:58Z</time>
      </trkpt>
      <trkpt lat="47.2454" lon="-1.12031">
        <ele>199</ele>
        <time>2018-03-10T15:39:05Z</time>
      </trkpt>
      <trkpt lat="47.2453" lon="-1.12024">
        <ele>199</ele>
        <time>2018-03-10T15:39:10Z</time>
      </trkpt>
      <trkpt lat="47.24515" lon="-1.12027">
        <ele>200</ele>
        <time>2018-03-10T15:41:33Z</time>
      </trkpt>
      <trkpt lat="47.2451" lon="-1.12045">
        <ele>200</ele>
        <time>2018-03-10T15:41:41Z</time>
      </trkpt>
      <trkpt lat="47.24507" lon="-1.12061">
        <ele>200</ele>
        <time>2018-03-10T15:41:46Z</time>
      </trkpt>
      <trkpt lat="47.24502" lon="-1.12076">
        <ele>200</ele>
        <time>2018-03-10T15:41:51Z</time>
      </trkpt>
      <trkpt lat="47.24494" lon="-1.12094">
        <ele>200</ele>
        <time>2018-03-10T15:41:58Z</time>
      </trkpt>
      <trkpt lat="47.2449" lon="-1.12098">
        <ele>200</ele>
        <time>2018-03-10T15:42:01Z</time>
      </trkpt>
      <trkpt lat="47.24488" lon="-1.12101">
        <ele>200</ele>
        <time>2018-03-10T15:42:03Z</time>
      </trkpt>
      <trkpt lat="47.24485" lon="-1.12103">
        <ele>200</ele>
        <time>2018-03-10T15:42:05Z</time>
      </trkpt>
      <trkpt lat="47.24479" lon="-1.12108">
        <ele>200</ele>
        <time>2018-03-10T15:42:09Z</time>
      </trkpt>
      <trkpt lat="47.24464" lon="-1.12118">
        <ele>201</ele>
        <time>2018-03-10T15:42:15Z</time>
      </trkpt>
      <trkpt lat="47.24453" lon="-1.12124">
        <ele>201</ele>
        <time>2018-03-10T15:42:19Z</time>
      </trkpt>
      <trkpt lat="47.24451" lon="-1.12126">
        <ele>201</ele>
        <time>2018-03-10T15:42:20Z</time>
      </trkpt>
      <trkpt lat="47.24449" lon="-1.12128">
        <ele>201</ele>
        <time>2018-03-10T15:42:21Z</time>
      </trkpt>
      <trkpt lat="47.24431" lon="-1.12137">
        <ele>201</ele>
        <time>2018-03-10T15:42:27Z</time>
      </trkpt>
      <trkpt lat="47.24418" lon="-1.12144">
        <ele>202</ele>
        <time>2018-03-10T15:42:33Z</time>
      </trkpt>
      <trkpt lat="47.24398" lon="-1.12154">
        <ele>202</ele>
        <time>2018-03-10T15:42:40Z</time>
      </trkpt>
      <trkpt lat="47.24392" lon="-1.12156">
        <ele>202</ele>
        <time>2018-03-10T15:42:42Z</time>
      </trkpt>
      <trkpt lat="47.2438" lon="-1.12157">
        <ele>202</ele>
        <time>2018-03-10T15:42:46Z</time>
      </trkpt>
      <trkpt lat="47.24361" lon="-1.12161">
        <ele>202</ele>
        <time>2018-03-10T15:42:52Z</time>
      </trkpt>
      <trkpt lat="47.24341" lon="-1.12161">
        <ele>203</ele>
        <time>2018-03-10T15:42:58Z</time>
      </trkpt>
      <trkpt lat="47.24325" lon="-1.1216">
        <ele>203</ele>
        <time>2018-03-10T15:43:04Z</time>
      </trkpt>
      <trkpt lat="47.24312" lon="-1.12162">
        <ele>203</ele>
        <time>2018-03-10T15:43:10Z</time>
      </trkpt>
      <trkpt lat="47.24308" lon="-1.12162">
        <ele>203</ele>
        <time>2018-03-10T15:43:12Z</time>
      </trkpt>
      <trkpt lat="47.24299" lon="-1.12164">
        <ele>203</ele>
        <time>2018-03-10T15:43:16Z</time>
      </trkpt>
      <trkpt lat="47.24282" lon="-1.1217">
        <ele>204</ele>
        <time>2018-03-10T15:43:23Z</time>
      </trkpt>
      <trkpt lat="47.24264" lon="-1.12169">
        <ele>204</ele>
        <time>2018-03-10T15:43:30Z</time>
      </trkpt>
      <trkpt lat="47.24249" lon="-1.12169">
        <ele>204</ele>
        <time>2018-03-10T15:43:36Z</time>
      </trkpt>
      <trkpt lat="47.24234" lon="-1.12166">
        <ele>204</ele>
        <time>2018-03-10T15:43:41Z</time>
      </trkpt>
      <trkpt lat="47.24226" lon="-1.12165">
        <ele>204</ele>
        <time>2018-03-10T15:43:44Z</time>
      </trkpt>
      <trkpt lat="47.24206" lon="-1.1216">
        <ele>204</ele>
        <time>2018-03-10T15:43:52Z</time>
      </trkpt>
      <trkpt lat="47.24188" lon="-1.12153">
        <ele>205</ele>
        <time>2018-03-10T15:43:59Z</time>
      </trkpt>
      <trkpt lat="47.24172" lon="-1.1215">
        <ele>205</ele>
        <time>2018-03-10T15:44:05Z</time>
      </trkpt>
      <trkpt lat="47.24167" lon="-1.12149">
        <ele>205</ele>
        <time>2018-03-10T15:44:07Z</time>
      </trkpt>
      <trkpt lat="47.24154" lon="-1.12147">
        <ele>205</ele>
        <time>2018-03-10T15:44:12Z</time>
      </trkpt>
      <trkpt lat="47.24133" lon="-1.12146">
        <ele>206</ele>
        <time>2018-03-10T15:44:19Z</time>
      </trkpt>
      <trkpt lat="47.24113" lon="-1.12143">
        <ele>205</ele>
        <time>2018-03-10T15:44:26Z</time>
      </trkpt>
      <trkpt lat="47.24086" lon="-1.12138">
        <ele>205</ele>
        <time>2018-03-10T15:44:35Z</time>
      </trkpt>
      <trkpt lat="47.24068" lon="-1.12138">
        <ele>206</ele>
        <time>2018-03-10T15:44:41Z</time>
      </trkpt>
      <trkpt lat="47.24051" lon="-1.12142">
        <ele>205</ele>
        <time>2018-03-10T15:44:48Z</time>
      </trkpt>
      <trkpt lat="47.24035" lon="-1.12147">
        <ele>205</ele>
        <time>2018-03-10T15:44:55Z</time>
      </trkpt>
      <trkpt lat="47.24021" lon="-1.12153">
        <ele>205</ele>
        <time>2018-03-10T15:45:00Z</time>
      </trkpt>
      <trkpt lat="47.24002" lon="-1.12165">
        <ele>205</ele>
        <time>2018-03-10T15:45:07Z</time>
      </trkpt>
      <trkpt lat="47.23988" lon="-1.12172">
        <ele>204</ele>
        <time>2018-03-10T15:45:13Z</time>
      </trkpt>
      <trkpt lat="47.23974" lon="-1.12178">
        <ele>204</ele>
        <time>2018-03-10T15:45:19Z</time>
      </trkpt>
      <trkpt lat="47.23959" lon="-1.12185">
        <ele>204</ele>
        <time>2018-03-10T15:45:25Z</time>
      </trkpt>
      <trkpt lat="47.23957" lon="-1.12185">
        <ele>204</ele>
        <time>2018-03-10T15:45:26Z</time>
      </trkpt>
      <trkpt lat="47.23937" lon="-1.12196">
        <ele>204</ele>
        <time>2018-03-10T15:45:34Z</time>
      </trkpt>
      <trkpt lat="47.23921" lon="-1.12202">
        <ele>203</ele>
        <time>2018-03-10T15:45:40Z</time>
      </trkpt>
      <trkpt lat="47.23914" lon="-1.12205">
        <ele>203</ele>
        <time>2018-03-10T15:45:42Z</time>
      </trkpt>
      <trkpt lat="47.23897" lon="-1.12215">
        <ele>202</ele>
        <time>2018-03-10T15:45:48Z</time>
      </trkpt>
      <trkpt lat="47.23893" lon="-1.12217">
        <ele>202</ele>
        <time>2018-03-10T15:45:50Z</time>
      </trkpt>
      <trkpt lat="47.23881" lon="-1.12229">
        <ele>202</ele>
        <time>2018-03-10T15:45:56Z</time>
      </trkpt>
      <trkpt lat="47.23873" lon="-1.1224">
        <ele>201</ele>
        <time>2018-03-10T15:46:02Z</time>
      </trkpt>
      <trkpt lat="47.23867" lon="-1.12248">
        <ele>201</ele>
        <time>2018-03-10T15:46:08Z</time>
      </trkpt>
      <trkpt lat="47.23854" lon="-1.12259">
        <ele>200</ele>
        <time>2018-03-10T15:50:42Z</time>
      </trkpt>
      <trkpt lat="47.23852" lon="-1.12261">
        <ele>200</ele>
        <time>2018-03-10T15:50:44Z</time>
      </trkpt>
      <trkpt lat="47.23845" lon="-1.12266">
        <ele>200</ele>
        <time>2018-03-10T15:50:50Z</time>
      </trkpt>
      <trkpt lat="47.23834" lon="-1.12275">
        <ele>200</ele>
        <time>2018-03-10T15:50:58Z</time>
      </trkpt>
      <trkpt lat="47.23825" lon="-1.12286">
        <ele>201</ele>
        <time>2018-03-10T15:51:06Z</time>
      </trkpt>
      <trkpt lat="47.23819" lon="-1.12294">
        <ele>201</ele>
        <time>2018-03-10T15:51:12Z</time>
      </trkpt>
      <trkpt lat="47.23803" lon="-1.12306">
        <ele>201</ele>
        <time>2018-03-10T15:51:23Z</time>
      </trkpt>
      <trkpt lat="47.23789" lon="-1.12316">
        <ele>201</ele>
        <time>2018-03-10T15:51:32Z</time>
      </trkpt>
      <trkpt lat="47.23778" lon="-1.12324">
        <ele>202</ele>
        <time>2018-03-10T15:51:38Z</time>
      </trkpt>
      <trkpt lat="47.23772" lon="-1.12329">
        <ele>202</ele>
        <time>2018-03-10T15:51:42Z</time>
      </trkpt>
      <trkpt lat="47.23761" lon="-1.12337">
        <ele>202</ele>
        <time>2018-03-10T15:51:48Z</time>
      </trkpt>
      <trkpt lat="47.23749" lon="-1.12345">
        <ele>203</ele>
        <time>2018-03-10T15:51:55Z</time>
      </trkpt>
      <trkpt lat="47.23734" lon="-1.12358">
        <ele>203</ele>
        <time>2018-03-10T15:52:04Z</time>
      </trkpt>
      <trkpt lat="47.23725" lon="-1.12364">
        <ele>203</ele>
        <time>2018-03-10T15:52:09Z</time>
      </trkpt>
      <trkpt lat="47.23715" lon="-1.12371">
        <ele>203</ele>
        <time>2018-03-10T15:52:15Z</time>
      </trkpt>
      <trkpt lat="47.23704" lon="-1.12377">
        <ele>203</ele>
        <time>2018-03-10T15:52:23Z</time>
      </trkpt>
      <trkpt lat="47.23703" lon="-1.12377">
        <ele>203</ele>
        <time>2018-03-10T15:52:24Z</time>
      </trkpt>
      <trkpt lat="47.23698" lon="-1.12373">
        <ele>203</ele>
        <time>2018-03-10T15:52:27Z</time>
      </trkpt>
      <trkpt lat="47.23692" lon="-1.12367">
        <ele>203</ele>
        <time>2018-03-10T15:52:31Z</time>
      </trkpt>
      <trkpt lat="47.23678" lon="-1.12354">
        <ele>203</ele>
        <time>2018-03-10T15:52:40Z</time>
      </trkpt>
      <trkpt lat="47.2366" lon="-1.12348">
        <ele>202</ele>
        <time>2018-03-10T15:52:47Z</time>
      </trkpt>
      <trkpt lat="47.23652" lon="-1.12348">
        <ele>202</ele>
        <time>2018-03-10T15:52:50Z</time>
      </trkpt>
      <trkpt lat="47.23641" lon="-1.12348">
        <ele>202</ele>
        <time>2018-03-10T15:52:55Z</time>
      </trkpt>
      <trkpt lat="47.23629" lon="-1.12348">
        <ele>201</ele>
        <time>2018-03-10T15:53:02Z</time>
      </trkpt>
      <trkpt lat="47.23626" lon="-1.12348">
        <ele>201</ele>
        <time>2018-03-10T15:53:04Z</time>
      </trkpt>
      <trkpt lat="47.23618" lon="-1.12347">
        <ele>201</ele>
        <time>2018-03-10T15:53:08Z</time>
      </trkpt>
      <trkpt lat="47.23613" lon="-1.12346">
        <ele>201</ele>
        <time>2018-03-10T15:53:11Z</time>
      </trkpt>
      <trkpt lat="47.23606" lon="-1.12345">
        <ele>200</ele>
        <time>2018-03-10T15:53:14Z</time>
      </trkpt>
      <trkpt lat="47.23596" lon="-1.12342">
        <ele>200</ele>
        <time>2018-03-10T15:53:19Z</time>
      </trkpt>
      <trkpt lat="47.23594" lon="-1.12341">
        <ele>200</ele>
        <time>2018-03-10T15:53:20Z</time>
      </trkpt>
      <trkpt lat="47.23583" lon="-1.12337">
        <ele>200</ele>
        <time>2018-03-10T15:53:26Z</time>
      </trkpt>
      <trkpt lat="47.23574" lon="-1.12328">
        <ele>200</ele>
        <time>2018-03-10T15:53:32Z</time>
      </trkpt>
      <trkpt lat="47.23564" lon="-1.12317">
        <ele>200</ele>
        <time>2018-03-10T15:53:39Z</time>
      </trkpt>
      <trkpt lat="47.23552" lon="-1.12306">
        <ele>200</ele>
        <time>2018-03-10T15:53:45Z</time>
      </trkpt>
      <trkpt lat="47.23537" lon="-1.12294">
        <ele>200</ele>
        <time>2018-03-10T15:53:51Z</time>
      </trkpt>
      <trkpt lat="47.2352" lon="-1.12282">
        <ele>200</ele>
        <time>2018-03-10T15:53:59Z</time>
      </trkpt>
      <trkpt lat="47.23504" lon="-1.1227">
        <ele>200</ele>
        <time>2018-03-10T15:54:07Z</time>
      </trkpt>
      <trkpt lat="47.23491" lon="-1.12263">
        <ele>200</ele>
        <time>2018-03-10T15:54:13Z</time>
      </trkpt>
      <trkpt lat="47.23477" lon="-1.12254">
        <ele>200</ele>
        <time>2018-03-10T15:54:19Z</time>
      </trkpt>
      <trkpt lat="47.23463" lon="-1.12247">
        <ele>200</ele>
        <time>2018-03-10T15:54:26Z</time>
      </trkpt>
      <trkpt lat="47.23446" lon="-1.12238">
        <ele>200</ele>
        <time>2018-03-10T15:54:34Z</time>
      </trkpt>
      <trkpt lat="47.23432" lon="-1.12233">
        <ele>200</ele>
        <time>2018-03-10T15:54:40Z</time>
      </trkpt>
      <trkpt lat="47.23421" lon="-1.1223">
        <ele>200</ele>
        <time>2018-03-10T15:54:46Z</time>
      </trkpt>
      <trkpt lat="47.23404" lon="-1.12227">
        <ele>200</ele>
        <time>2018-03-10T15:54:54Z</time>
      </trkpt>
      <trkpt lat="47.23389" lon="-1.1223">
        <ele>200</ele>
        <time>2018-03-10T15:55:01Z</time>
      </trkpt>
      <trkpt lat="47.23378" lon="-1.1223">
        <ele>200</ele>
        <time>2018-03-10T15:56:29Z</time>
      </trkpt>
      <trkpt lat="47.23376" lon="-1.12232">
        <ele>200</ele>
        <time>2018-03-10T15:56:30Z</time>
      </trkpt>
      <trkpt lat="47.23365" lon="-1.12243">
        <ele>200</ele>
        <time>2018-03-10T15:56:35Z</time>
      </trkpt>
      <trkpt lat="47.23341" lon="-1.12258">
        <ele>200</ele>
        <time>2018-03-10T15:56:43Z</time>
      </trkpt>
      <trkpt lat="47.23321" lon="-1.1227">
        <ele>201</ele>
        <time>2018-03-10T15:56:49Z</time>
      </trkpt>
      <trkpt lat="47.23318" lon="-1.12272">
        <ele>201</ele>
        <time>2018-03-10T15:56:50Z</time>
      </trkpt>
      <trkpt lat="47.23297" lon="-1.12285">
        <ele>201</ele>
        <time>2018-03-10T15:56:58Z</time>
      </trkpt>
      <trkpt lat="47.23287" lon="-1.12289">
        <ele>202</ele>
        <time>2018-03-10T15:57:02Z</time>
      </trkpt>
      <trkpt lat="47.23284" lon="-1.12287">
        <ele>202</ele>
        <time>2018-03-10T15:57:03Z</time>
      </trkpt>
      <trkpt lat="47.23273" lon="-1.12276">
        <ele>202</ele>
        <time>2018-03-10T15:57:07Z</time>
      </trkpt>
      <trkpt lat="47.23266" lon="-1.12269">
        <ele>202</ele>
        <time>2018-03-10T15:57:09Z</time>
      </trkpt>
      <trkpt lat="47.2325" lon="-1.12251">
        <ele>202</ele>
        <time>2018-03-10T15:57:15Z</time>
      </trkpt>
      <trkpt lat="47.23237" lon="-1.12236">
        <ele>202</ele>
        <time>2018-03-10T15:57:21Z</time>
      </trkpt>
      <trkpt lat="47.2322" lon="-1.12219">
        <ele>201</ele>
        <time>2018-03-10T15:57:27Z</time>
      </trkpt>
      <trkpt lat="47.23201" lon="-1.122">
        <ele>201</ele>
        <time>2018-03-10T15:57:34Z</time>
      </trkpt>
      <trkpt lat="47.23186" lon="-1.12178">
        <ele>201</ele>
        <time>2018-03-10T15:57:40Z</time>
      </trkpt>
      <trkpt lat="47.23183" lon="-1.12175">
        <ele>201</ele>
        <time>2018-03-10T15:57:41Z</time>
      </trkpt>
      <trkpt lat="47.23169" lon="-1.12157">
        <ele>201</ele>
        <time>2018-03-10T15:57:47Z</time>
      </trkpt>
      <trkpt lat="47.23155" lon="-1.12139">
        <ele>200</ele>
        <time>2018-03-10T15:57:55Z</time>
      </trkpt>
      <trkpt lat="47.2315" lon="-1.12131">
        <ele>200</ele>
        <time>2018-03-10T15:58:00Z</time>
      </trkpt>
      <trkpt lat="47.2315" lon="-1.12128">
        <ele>200</ele>
        <time>2018-03-10T15:58:01Z</time>
      </trkpt>
      <trkpt lat="47.2315" lon="-1.12121">
        <ele>200</ele>
        <time>2018-03-10T15:58:05Z</time>
      </trkpt>
      <trkpt lat="47.23149" lon="-1.12118">
        <ele>200</ele>
        <time>2018-03-10T15:58:34Z</time>
      </trkpt>
      <trkpt lat="47.2314" lon="-1.12107">
        <ele>200</ele>
        <time>2018-03-10T15:58:39Z</time>
      </trkpt>
      <trkpt lat="47.23131" lon="-1.12096">
        <ele>199</ele>
        <time>2018-03-10T15:58:45Z</time>
      </trkpt>
      <trkpt lat="47.23117" lon="-1.12088">
        <ele>199</ele>
        <time>2018-03-10T15:58:51Z</time>
      </trkpt>
      <trkpt lat="47.23097" lon="-1.12079">
        <ele>199</ele>
        <time>2018-03-10T15:58:57Z</time>
      </trkpt>
      <trkpt lat="47.23082" lon="-1.12067">
        <ele>199</ele>
        <time>2018-03-10T15:59:03Z</time>
      </trkpt>
      <trkpt lat="47.23078" lon="-1.12065">
        <ele>198</ele>
        <time>2018-03-10T15:59:45Z</time>
      </trkpt>
      <trkpt lat="47.23077" lon="-1.12064">
        <ele>198</ele>
        <time>2018-03-10T15:59:46Z</time>
      </trkpt>
      <trkpt lat="47.23064" lon="-1.12054">
        <ele>197</ele>
        <time>2018-03-10T15:59:53Z</time>
      </trkpt>
      <trkpt lat="47.23044" lon="-1.12039">
        <ele>197</ele>
        <time>2018-03-10T16:00:01Z</time>
      </trkpt>
      <trkpt lat="47.23043" lon="-1.12038">
        <ele>196</ele>
        <time>2018-03-10T16:00:02Z</time>
      </trkpt>
      <trkpt lat="47.23037" lon="-1.12033">
        <ele>196</ele>
        <time>2018-03-10T16:00:05Z</time>
      </trkpt>
      <trkpt lat="47.23019" lon="-1.12021">
        <ele>195</ele>
        <time>2018-03-10T16:00:12Z</time>
      </trkpt>
      <trkpt lat="47.23009" lon="-1.12013">
        <ele>195</ele>
        <time>2018-03-10T16:00:17Z</time>
      </trkpt>
      <trkpt lat="47.23" lon="-1.12002">
        <ele>194</ele>
        <time>2018-03-10T16:00:23Z</time>
      </trkpt>
      <trkpt lat="47.22995" lon="-1.11998">
        <ele>194</ele>
        <time>2018-03-10T16:00:26Z</time>
      </trkpt>
      <trkpt lat="47.22987" lon="-1.11993">
        <ele>194</ele>
        <time>2018-03-10T16:00:30Z</time>
      </trkpt>
      <trkpt lat="47.22975" lon="-1.11984">
        <ele>193</ele>
        <time>2018-03-10T16:00:54Z</time>
      </trkpt>
      <trkpt lat="47.22969" lon="-1.11985">
        <ele>193</ele>
        <time>2018-03-10T16:01:01Z</time>
      </trkpt>
      <trkpt lat="47.22962" lon="-1.11984">
        <ele>193</ele>
        <time>2018-03-10T16:01:05Z</time>
      </trkpt>
      <trkpt lat="47.22951" lon="-1.11978">
        <ele>192</ele>
        <time>2018-03-10T16:01:13Z</time>
      </trkpt>
      <trkpt lat="47.22942" lon="-1.11973">
        <ele>192</ele>
        <time>2018-03-10T16:01:20Z</time>
      </trkpt>
      <trkpt lat="47.22934" lon="-1.11968">
        <ele>192</ele>
        <time>2018-03-10T16:01:27Z</time>
      </trkpt>
      <trkpt lat="47.22926" lon="-1.11963">
        <ele>191</ele>
        <time>2018-03-10T16:01:33Z</time>
      </trkpt>
      <trkpt lat="47.22912" lon="-1.11954">
        <ele>192</ele>
        <time>2018-03-10T16:01:41Z</time>
      </trkpt>
      <trkpt lat="47.229" lon="-1.11946">
        <ele>191</ele>
        <time>2018-03-10T16:01:47Z</time>
      </trkpt>
      <trkpt lat="47.22892" lon="-1.11942">
        <ele>191</ele>
        <time>2018-03-10T16:01:53Z</time>
      </trkpt>
      <trkpt lat="47.22888" lon="-1.11941">
        <ele>191</ele>
        <time>2018-03-10T16:02:44Z</time>
      </trkpt>
      <trkpt lat="47.22884" lon="-1.11942">
        <ele>191</ele>
        <time>2018-03-10T16:02:46Z</time>
      </trkpt>
      <trkpt lat="47.22879" lon="-1.11943">
        <ele>190</ele>
        <time>2018-03-10T16:02:48Z</time>
      </trkpt>
      <trkpt lat="47.22866" lon="-1.11945">
        <ele>190</ele>
        <time>2018-03-10T16:02:54Z</time>
      </trkpt>
      <trkpt lat="47.22852" lon="-1.1195">
        <ele>190</ele>
        <time>2018-03-10T16:03:02Z</time>
      </trkpt>
      <trkpt lat="47.2284" lon="-1.11955">
        <ele>190</ele>
        <time>2018-03-10T16:03:09Z</time>
      </trkpt>
      <trkpt lat="47.2283" lon="-1.11959">
        <ele>190</ele>
        <time>2018-03-10T16:03:16Z</time>
      </trkpt>
      <trkpt lat="47.22817" lon="-1.11963">
        <ele>189</ele>
        <time>2018-03-10T16:04:24Z</time>
      </trkpt>
      <trkpt lat="47.22815" lon="-1.11964">
        <ele>189</ele>
        <time>2018-03-10T16:04:25Z</time>
      </trkpt>
      <trkpt lat="47.228" lon="-1.11969">
        <ele>188</ele>
        <time>2018-03-10T16:04:32Z</time>
      </trkpt>
      <trkpt lat="47.22781" lon="-1.11977">
        <ele>188</ele>
        <time>2018-03-10T16:04:39Z</time>
      </trkpt>
      <trkpt lat="47.22761" lon="-1.11982">
        <ele>188</ele>
        <time>2018-03-10T16:04:45Z</time>
      </trkpt>
      <trkpt lat="47.22742" lon="-1.11985">
        <ele>188</ele>
        <time>2018-03-10T16:04:51Z</time>
      </trkpt>
      <trkpt lat="47.22736" lon="-1.11986">
        <ele>187</ele>
        <time>2018-03-10T16:04:53Z</time>
      </trkpt>
      <trkpt lat="47.22711" lon="-1.11991">
        <ele>187</ele>
        <time>2018-03-10T16:05:01Z</time>
      </trkpt>
      <trkpt lat="47.227" lon="-1.11994">
        <ele>187</ele>
        <time>2018-03-10T16:05:06Z</time>
      </trkpt>
      <trkpt lat="47.22688" lon="-1.11997">
        <ele>186</ele>
        <time>2018-03-10T16:05:12Z</time>
      </trkpt>
      <trkpt lat="47.22685" lon="-1.11998">
        <ele>186</ele>
        <time>2018-03-10T16:05:13Z</time>
      </trkpt>
      <trkpt lat="47.22673" lon="-1.12003">
        <ele>186</ele>
        <time>2018-03-10T16:05:19Z</time>
      </trkpt>
      <trkpt lat="47.22663" lon="-1.12005">
        <ele>186</ele>
        <time>2018-03-10T16:05:25Z</time>
      </trkpt>
      <trkpt lat="47.22648" lon="-1.12004">
        <ele>186</ele>
        <time>2018-03-10T16:05:33Z</time>
      </trkpt>
      <trkpt lat="47.2264" lon="-1.12005">
        <ele>185</ele>
        <time>2018-03-10T16:05:37Z</time>
      </trkpt>
      <trkpt lat="47.22634" lon="-1.12005">
        <ele>185</ele>
        <time>2018-03-10T16:05:40Z</time>
      </trkpt>
      <trkpt lat="47.22619" lon="-1.12007">
        <ele>185</ele>
        <time>2018-03-10T16:05:49Z</time>
      </trkpt>
      <trkpt lat="47.22614" lon="-1.12007">
        <ele>184</ele>
        <time>2018-03-10T16:05:52Z</time>
      </trkpt>
      <trkpt lat="47.22606" lon="-1.12007">
        <ele>184</ele>
        <time>2018-03-10T16:05:56Z</time>
      </trkpt>
      <trkpt lat="47.22592" lon="-1.12008">
        <ele>183</ele>
        <time>2018-03-10T16:06:05Z</time>
      </trkpt>
      <trkpt lat="47.2259" lon="-1.12009">
        <ele>183</ele>
        <time>2018-03-10T16:06:06Z</time>
      </trkpt>
      <trkpt lat="47.22579" lon="-1.12008">
        <ele>183</ele>
        <time>2018-03-10T16:06:11Z</time>
      </trkpt>
      <trkpt lat="47.22566" lon="-1.12009">
        <ele>183</ele>
        <time>2018-03-10T16:06:17Z</time>
      </trkpt>
      <trkpt lat="47.22551" lon="-1.12008">
        <ele>183</ele>
        <time>2018-03-10T16:06:24Z</time>
      </trkpt>
      <trkpt lat="47.22536" lon="-1.1201">
        <ele>182</ele>
        <time>2018-03-10T16:06:31Z</time>
      </trkpt>
      <trkpt lat="47.22531" lon="-1.12009">
        <ele>182</ele>
        <time>2018-03-10T16:06:33Z</time>
      </trkpt>
      <trkpt lat="47.22518" lon="-1.12011">
        <ele>182</ele>
        <time>2018-03-10T16:06:39Z</time>
      </trkpt>
      <trkpt lat="47.22512" lon="-1.12011">
        <ele>181</ele>
        <time>2018-03-10T16:06:42Z</time>
      </trkpt>
      <trkpt lat="47.22505" lon="-1.1201">
        <ele>181</ele>
        <time>2018-03-10T16:06:46Z</time>
      </trkpt>
      <trkpt lat="47.22495" lon="-1.12011">
        <ele>180</ele>
        <time>2018-03-10T16:06:51Z</time>
      </trkpt>
      <trkpt lat="47.2249" lon="-1.12011">
        <ele>180</ele>
        <time>2018-03-10T16:06:54Z</time>
      </trkpt>
      <trkpt lat="47.22484" lon="-1.12011">
        <ele>180</ele>
        <time>2018-03-10T16:06:58Z</time>
      </trkpt>
      <trkpt lat="47.22466" lon="-1.1201">
        <ele>179</ele>
        <time>2018-03-10T16:07:14Z</time>
      </trkpt>
      <trkpt lat="47.22463" lon="-1.1201">
        <ele>179</ele>
        <time>2018-03-10T16:07:16Z</time>
      </trkpt>
      <trkpt lat="47.22456" lon="-1.12011">
        <ele>179</ele>
        <time>2018-03-10T16:07:20Z</time>
      </trkpt>
      <trkpt lat="47.22449" lon="-1.12011">
        <ele>179</ele>
        <time>2018-03-10T16:07:24Z</time>
      </trkpt>
      <trkpt lat="47.22439" lon="-1.12014">
        <ele>180</ele>
        <time>2018-03-10T16:10:49Z</time>
      </trkpt>
      <trkpt lat="47.22435" lon="-1.12018">
        <ele>180</ele>
        <time>2018-03-10T16:10:51Z</time>
      </trkpt>
      <trkpt lat="47.2242" lon="-1.12038">
        <ele>179</ele>
        <time>2018-03-10T16:10:58Z</time>
      </trkpt>
      <trkpt lat="47.22413" lon="-1.12048">
        <ele>179</ele>
        <time>2018-03-10T16:11:03Z</time>
      </trkpt>
      <trkpt lat="47.22406" lon="-1.12057">
        <ele>178</ele>
        <time>2018-03-10T16:11:10Z</time>
      </trkpt>
      <trkpt lat="47.22399" lon="-1.1207">
        <ele>177</ele>
        <time>2018-03-10T16:11:16Z</time>
      </trkpt>
      <trkpt lat="47.22398" lon="-1.12073">
        <ele>177</ele>
        <time>2018-03-10T16:11:17Z</time>
      </trkpt>
      <trkpt lat="47.22389" lon="-1.12083">
        <ele>176</ele>
        <time>2018-03-10T16:11:24Z</time>
      </trkpt>
      <trkpt lat="47.22387" lon="-1.12089">
        <ele>176</ele>
        <time>2018-03-10T16:11:29Z</time>
      </trkpt>
      <trkpt lat="47.22384" lon="-1.12094">
        <ele>176</ele>
        <time>2018-03-10T16:11:31Z</time>
      </trkpt>
      <trkpt lat="47.2238" lon="-1.121">
        <ele>176</ele>
        <time>2018-03-10T16:11:34Z</time>
      </trkpt>
      <trkpt lat="47.22374" lon="-1.12108">
        <ele>176</ele>
        <time>2018-03-10T16:11:38Z</time>
      </trkpt>
      <trkpt lat="47.22366" lon="-1.12118">
        <ele>176</ele>
        <time>2018-03-10T16:11:44Z</time>
      </trkpt>
      <trkpt lat="47.22357" lon="-1.12129">
        <ele>175</ele>
        <time>2018-03-10T16:11:50Z</time>
      </trkpt>
      <trkpt lat="47.22346" lon="-1.12144">
        <ele>175</ele>
        <time>2018-03-10T16:12:02Z</time>
      </trkpt>
      <trkpt lat="47.22339" lon="-1.12154">
        <ele>175</ele>
        <time>2018-03-10T16:12:08Z</time>
      </trkpt>
      <trkpt lat="47.22331" lon="-1.12163">
        <ele>175</ele>
        <time>2018-03-10T16:12:14Z</time>
      </trkpt>
      <trkpt lat="47.2233" lon="-1.12164">
        <ele>175</ele>
        <time>2018-03-10T16:12:15Z</time>
      </trkpt>
      <trkpt lat="47.2232" lon="-1.12178">
        <ele>174</ele>
        <time>2018-03-10T16:12:23Z</time>
      </trkpt>
      <trkpt lat="47.22308" lon="-1.12192">
        <ele>174</ele>
        <time>2018-03-10T16:12:30Z</time>
      </trkpt>
      <trkpt lat="47.22303" lon="-1.12199">
        <ele>174</ele>
        <time>2018-03-10T16:12:35Z</time>
      </trkpt>
      <trkpt lat="47.22302" lon="-1.122">
        <ele>173</ele>
        <time>2018-03-10T16:12:36Z</time>
      </trkpt>
      <trkpt lat="47.22292" lon="-1.12211">
        <ele>173</ele>
        <time>2018-03-10T16:12:45Z</time>
      </trkpt>
      <trkpt lat="47.22282" lon="-1.12219">
        <ele>173</ele>
        <time>2018-03-10T16:12:50Z</time>
      </trkpt>
      <trkpt lat="47.22273" lon="-1.12227">
        <ele>172</ele>
        <time>2018-03-10T16:12:55Z</time>
      </trkpt>
      <trkpt lat="47.22269" lon="-1.1223">
        <ele>172</ele>
        <time>2018-03-10T16:12:57Z</time>
      </trkpt>
      <trkpt lat="47.22253" lon="-1.12243">
        <ele>172</ele>
        <time>2018-03-10T16:13:05Z</time>
      </trkpt>
      <trkpt lat="47.2224" lon="-1.12254">
        <ele>172</ele>
        <time>2018-03-10T16:13:12Z</time>
      </trkpt>
      <trkpt lat="47.22226" lon="-1.12255">
        <ele>172</ele>
        <time>2018-03-10T16:15:27Z</time>
      </trkpt>
      <trkpt lat="47.22223" lon="-1.12254">
        <ele>172</ele>
        <time>2018-03-10T16:15:28Z</time>
      </trkpt>
      <trkpt lat="47.22215" lon="-1.12242">
        <ele>172</ele>
        <time>2018-03-10T16:15:33Z</time>
      </trkpt>
      <trkpt lat="47.22214" lon="-1.12239">
        <ele>172</ele>
        <time>2018-03-10T16:15:34Z</time>
      </trkpt>
      <trkpt lat="47.22209" lon="-1.12226">
        <ele>172</ele>
        <time>2018-03-10T16:15:41Z</time>
      </trkpt>
      <trkpt lat="47.22204" lon="-1.12211">
        <ele>173</ele>
        <time>2018-03-10T16:15:49Z</time>
      </trkpt>
      <trkpt lat="47.22197" lon="-1.12193">
        <ele>173</ele>
        <time>2018-03-10T16:15:57Z</time>
      </trkpt>
      <trkpt lat="47.22189" lon="-1.12176">
        <ele>174</ele>
        <time>2018-03-10T16:16:04Z</time>
      </trkpt>
      <trkpt lat="47.22182" lon="-1.12157">
        <ele>174</ele>
        <time>2018-03-10T16:16:12Z</time>
      </trkpt>
      <trkpt lat="47.22179" lon="-1.12149">
        <ele>175</ele>
        <time>2018-03-10T16:16:15Z</time>
      </trkpt>
      <trkpt lat="47.22176" lon="-1.1214">
        <ele>175</ele>
        <time>2018-03-10T16:16:19Z</time>
      </trkpt>
      <trkpt lat="47.22168" lon="-1.1212">
        <ele>176</ele>
        <time>2018-03-10T16:16:29Z</time>
      </trkpt>
      <trkpt lat="47.22165" lon="-1.12114">
        <ele>176</ele>
        <time>2018-03-10T16:16:33Z</time>
      </trkpt>
      <trkpt lat="47.22159" lon="-1.12112">
        <ele>176</ele>
        <time>2018-03-10T16:17:36Z</time>
      </trkpt>
      <trkpt lat="47.22153" lon="-1.12118">
        <ele>176</ele>
        <time>2018-03-10T16:17:39Z</time>
      </trkpt>
      <trkpt lat="47.22134" lon="-1.12134">
        <ele>175</ele>
        <time>2018-03-10T16:17:45Z</time>
      </trkpt>
      <trkpt lat="47.22123" lon="-1.12143">
        <ele>175</ele>
        <time>2018-03-10T16:17:50Z</time>
      </trkpt>
      <trkpt lat="47.2212" lon="-1.12138">
        <ele>175</ele>
        <time>2018-03-10T16:17:52Z</time>
      </trkpt>
      <trkpt lat="47.22118" lon="-1.12131">
        <ele>174</ele>
        <time>2018-03-10T16:17:54Z</time>
      </trkpt>
      <trkpt lat="47.22118" lon="-1.12124">
        <ele>174</ele>
        <time>2018-03-10T16:17:56Z</time>
      </trkpt>
      <trkpt lat="47.22119" lon="-1.12109">
        <ele>175</ele>
        <time>2018-03-10T16:18:00Z</time>
      </trkpt>
      <trkpt lat="47.2212" lon="-1.12089">
        <ele>176</ele>
        <time>2018-03-10T16:18:05Z</time>
      </trkpt>
      <trkpt lat="47.22121" lon="-1.12085">
        <ele>176</ele>
        <time>2018-03-10T16:18:06Z</time>
      </trkpt>
      <trkpt lat="47.22124" lon="-1.12062">
        <ele>176</ele>
        <time>2018-03-10T16:18:13Z</time>
      </trkpt>
      <trkpt lat="47.22124" lon="-1.12043">
        <ele>177</ele>
        <time>2018-03-10T16:18:19Z</time>
      </trkpt>
      <trkpt lat="47.22124" lon="-1.12019">
        <ele>177</ele>
        <time>2018-03-10T16:18:27Z</time>
      </trkpt>
      <trkpt lat="47.22125" lon="-1.12">
        <ele>177</ele>
        <time>2018-03-10T16:18:33Z</time>
      </trkpt>
      <trkpt lat="47.22128" lon="-1.11976">
        <ele>176</ele>
        <time>2018-03-10T16:18:40Z</time>
      </trkpt>
      <trkpt lat="47.22128" lon="-1.11951">
        <ele>176</ele>
        <time>2018-03-10T16:18:46Z</time>
      </trkpt>
      <trkpt lat="47.22126" lon="-1.11922">
        <ele>174</ele>
        <time>2018-03-10T16:18:51Z</time>
      </trkpt>
      <trkpt lat="47.22126" lon="-1.11916">
        <ele>174</ele>
        <time>2018-03-10T16:18:52Z</time>
      </trkpt>
      <trkpt lat="47.22125" lon="-1.11903">
        <ele>173</ele>
        <time>2018-03-10T16:18:54Z</time>
      </trkpt>
      <trkpt lat="47.22123" lon="-1.11879">
        <ele>172</ele>
        <time>2018-03-10T16:18:58Z</time>
      </trkpt>
      <trkpt lat="47.22123" lon="-1.11873">
        <ele>172</ele>
        <time>2018-03-10T16:18:59Z</time>
      </trkpt>
      <trkpt lat="47.22122" lon="-1.11849">
        <ele>171</ele>
        <time>2018-03-10T16:19:03Z</time>
      </trkpt>
      <trkpt lat="47.22122" lon="-1.11843">
        <ele>171</ele>
        <time>2018-03-10T16:19:04Z</time>
      </trkpt>
      <trkpt lat="47.22126" lon="-1.11807">
        <ele>170</ele>
        <time>2018-03-10T16:19:10Z</time>
      </trkpt>
      <trkpt lat="47.2213" lon="-1.11779">
        <ele>169</ele>
        <time>2018-03-10T16:19:16Z</time>
      </trkpt>
      <trkpt lat="47.2213" lon="-1.11748">
        <ele>167</ele>
        <time>2018-03-10T16:19:38Z</time>
      </trkpt>
      <trkpt lat="47.2213" lon="-1.11743">
        <ele>167</ele>
        <time>2018-03-10T16:19:41Z</time>
      </trkpt>
      <trkpt lat="47.22127" lon="-1.11726">
        <ele>167</ele>
        <time>2018-03-10T16:19:48Z</time>
      </trkpt>
      <trkpt lat="47.22127" lon="-1.11721">
        <ele>167</ele>
        <time>2018-03-10T16:19:50Z</time>
      </trkpt>
      <trkpt lat="47.22125" lon="-1.11708">
        <ele>167</ele>
        <time>2018-03-10T16:19:54Z</time>
      </trkpt>
      <trkpt lat="47.22117" lon="-1.11682">
        <ele>168</ele>
        <time>2018-03-10T16:20:01Z</time>
      </trkpt>
      <trkpt lat="47.22117" lon="-1.11677">
        <ele>168</ele>
        <time>2018-03-10T16:20:03Z</time>
      </trkpt>
      <trkpt lat="47.22114" lon="-1.11666">
        <ele>169</ele>
        <time>2018-03-10T16:20:07Z</time>
      </trkpt>
      <trkpt lat="47.22113" lon="-1.11664">
        <ele>169</ele>
        <time>2018-03-10T16:20:08Z</time>
      </trkpt>
      <trkpt lat="47.22109" lon="-1.11651">
        <ele>170</ele>
        <time>2018-03-10T16:20:13Z</time>
      </trkpt>
      <trkpt lat="47.22106" lon="-1.11644">
        <ele>170</ele>
        <time>2018-03-10T16:20:16Z</time>
      </trkpt>
      <trkpt lat="47.22103" lon="-1.11635">
        <ele>171</ele>
        <time>2018-03-10T16:20:20Z</time>
      </trkpt>
      <trkpt lat="47.22098" lon="-1.11624">
        <ele>171</ele>
        <time>2018-03-10T16:20:26Z</time>
      </trkpt>
      <trkpt lat="47.22097" lon="-1.11621">
        <ele>171</ele>
        <time>2018-03-10T16:20:28Z</time>
      </trkpt>
      <trkpt lat="47.22059" lon="-1.11602">
        <ele>175</ele>
        <time>2018-03-10T16:22:13Z</time>
      </trkpt>
      <trkpt lat="47.22057" lon="-1.11602">
        <ele>175</ele>
        <time>2018-03-10T16:22:14Z</time>
      </trkpt>
      <trkpt lat="47.22045" lon="-1.11599">
        <ele>175</ele>
        <time>2018-03-10T16:22:22Z</time>
      </trkpt>
      <trkpt lat="47.22031" lon="-1.11596">
        <ele>176</ele>
        <time>2018-03-10T16:22:30Z</time>
      </trkpt>
      <trkpt lat="47.21986" lon="-1.11589">
        <ele>178</ele>
        <time>2018-03-10T16:23:15Z</time>
      </trkpt>
      <trkpt lat="47.21985" lon="-1.11588">
        <ele>179</ele>
        <time>2018-03-10T16:23:16Z</time>
      </trkpt>
      <trkpt lat="47.21972" lon="-1.11585">
        <ele>179</ele>
        <time>2018-03-10T16:23:24Z</time>
      </trkpt>
      <trkpt lat="47.2197" lon="-1.11584">
        <ele>180</ele>
        <time>2018-03-10T16:23:25Z</time>
      </trkpt>
      <trkpt lat="47.21959" lon="-1.11578">
        <ele>180</ele>
        <time>2018-03-10T16:23:32Z</time>
      </trkpt>
      <trkpt lat="47.2195" lon="-1.1157">
        <ele>181</ele>
        <time>2018-03-10T16:23:38Z</time>
      </trkpt>
      <trkpt lat="47.21941" lon="-1.11564">
        <ele>181</ele>
        <time>2018-03-10T16:23:45Z</time>
      </trkpt>
      <trkpt lat="47.21912" lon="-1.11536">
        <ele>183</ele>
        <time>2018-03-10T16:24:32Z</time>
      </trkpt>
      <trkpt lat="47.21911" lon="-1.11534">
        <ele>183</ele>
        <time>2018-03-10T16:24:33Z</time>
      </trkpt>
      <trkpt lat="47.21876" lon="-1.11506">
        <ele>185</ele>
        <time>2018-03-10T16:25:16Z</time>
      </trkpt>
      <trkpt lat="47.21875" lon="-1.11505">
        <ele>185</ele>
        <time>2018-03-10T16:25:17Z</time>
      </trkpt>
      <trkpt lat="47.21868" lon="-1.11501">
        <ele>185</ele>
        <time>2018-03-10T16:25:22Z</time>
      </trkpt>
      <trkpt lat="47.21866" lon="-1.115">
        <ele>185</ele>
        <time>2018-03-10T16:25:24Z</time>
      </trkpt>
      <trkpt lat="47.21861" lon="-1.11496">
        <ele>185</ele>
        <time>2018-03-10T16:25:35Z</time>
      </trkpt>
      <trkpt lat="47.21857" lon="-1.11493">
        <ele>185</ele>
        <time>2018-03-10T16:25:41Z</time>
      </trkpt>
      <trkpt lat="47.21849" lon="-1.11484">
        <ele>186</ele>
        <time>2018-03-10T16:25:51Z</time>
      </trkpt>
      <trkpt lat="47.21844" lon="-1.11479">
        <ele>186</ele>
        <time>2018-03-10T16:25:55Z</time>
      </trkpt>
      <trkpt lat="47.21837" lon="-1.11468">
        <ele>186</ele>
        <time>2018-03-10T16:26:03Z</time>
      </trkpt>
      <trkpt lat="47.21807" lon="-1.1144">
        <ele>189</ele>
        <time>2018-03-10T16:26:45Z</time>
      </trkpt>
      <trkpt lat="47.21804" lon="-1.11438">
        <ele>189</ele>
        <time>2018-03-10T16:26:47Z</time>
      </trkpt>
      <trkpt lat="47.21785" lon="-1.11428">
        <ele>190</ele>
        <time>2018-03-10T16:28:52Z</time>
      </trkpt>
      <trkpt lat="47.21784" lon="-1.11426">
        <ele>190</ele>
        <time>2018-03-10T16:28:53Z</time>
      </trkpt>
      <trkpt lat="47.21774" lon="-1.11414">
        <ele>190</ele>
        <time>2018-03-10T16:29:00Z</time>
      </trkpt>
      <trkpt lat="47.21759" lon="-1.11399">
        <ele>190</ele>
        <time>2018-03-10T16:29:08Z</time>
      </trkpt>
      <trkpt lat="47.21749" lon="-1.11386">
        <ele>191</ele>
        <time>2018-03-10T16:29:14Z</time>
      </trkpt>
      <trkpt lat="47.21741" lon="-1.11374">
        <ele>191</ele>
        <time>2018-03-10T16:29:19Z</time>
      </trkpt>
      <trkpt lat="47.21739" lon="-1.11371">
        <ele>191</ele>
        <time>2018-03-10T16:29:20Z</time>
      </trkpt>
      <trkpt lat="47.21722" lon="-1.11351">
        <ele>191</ele>
        <time>2018-03-10T16:29:28Z</time>
      </trkpt>
      <trkpt lat="47.21707" lon="-1.11335">
        <ele>192</ele>
        <time>2018-03-10T16:29:35Z</time>
      </trkpt>
      <trkpt lat="47.21702" lon="-1.11331">
        <ele>192</ele>
        <time>2018-03-10T16:29:37Z</time>
      </trkpt>
      <trkpt lat="47.21685" lon="-1.11314">
        <ele>193</ele>
        <time>2018-03-10T16:29:45Z</time>
      </trkpt>
      <trkpt lat="47.21677" lon="-1.11303">
        <ele>193</ele>
        <time>2018-03-10T16:29:49Z</time>
      </trkpt>
      <trkpt lat="47.21671" lon="-1.11294">
        <ele>193</ele>
        <time>2018-03-10T16:29:52Z</time>
      </trkpt>
      <trkpt lat="47.21663" lon="-1.11273">
        <ele>193</ele>
        <time>2018-03-10T16:29:58Z</time>
      </trkpt>
      <trkpt lat="47.21657" lon="-1.11252">
        <ele>194</ele>
        <time>2018-03-10T16:30:04Z</time>
      </trkpt>
      <trkpt lat="47.21639" lon="-1.1124">
        <ele>193</ele>
        <time>2018-03-10T16:30:10Z</time>
      </trkpt>
      <trkpt lat="47.21627" lon="-1.11227">
        <ele>193</ele>
        <time>2018-03-10T16:30:15Z</time>
      </trkpt>
      <trkpt lat="47.21625" lon="-1.11204">
        <ele>194</ele>
        <time>2018-03-10T16:30:20Z</time>
      </trkpt>
      <trkpt lat="47.21622" lon="-1.11156">
        <ele>194</ele>
        <time>2018-03-10T16:30:29Z</time>
      </trkpt>
      <trkpt lat="47.21617" lon="-1.11119">
        <ele>194</ele>
        <time>2018-03-10T16:30:36Z</time>
      </trkpt>
      <trkpt lat="47.21611" lon="-1.1109">
        <ele>194</ele>
        <time>2018-03-10T16:30:43Z</time>
      </trkpt>
      <trkpt lat="47.2161" lon="-1.11084">
        <ele>194</ele>
        <time>2018-03-10T16:31:41Z</time>
      </trkpt>
      <trkpt lat="47.2161" lon="-1.1108">
        <ele>194</ele>
        <time>2018-03-10T16:31:42Z</time>
      </trkpt>
      <trkpt lat="47.21612" lon="-1.11077">
        <ele>194</ele>
        <time>2018-03-10T16:31:43Z</time>
      </trkpt>
      <trkpt lat="47.21619" lon="-1.11067">
        <ele>194</ele>
        <time>2018-03-10T16:31:46Z</time>
      </trkpt>
      <trkpt lat="47.21622" lon="-1.11064">
        <ele>194</ele>
        <time>2018-03-10T16:31:47Z</time>
      </trkpt>
      <trkpt lat="47.2164" lon="-1.11047">
        <ele>194</ele>
        <time>2018-03-10T16:31:53Z</time>
      </trkpt>
      <trkpt lat="47.2166" lon="-1.11026">
        <ele>194</ele>
        <time>2018-03-10T16:32:01Z</time>
      </trkpt>
      <trkpt lat="47.21674" lon="-1.11007">
        <ele>194</ele>
        <time>2018-03-10T16:32:07Z</time>
      </trkpt>
      <trkpt lat="47.21689" lon="-1.10995">
        <ele>193</ele>
        <time>2018-03-10T16:32:13Z</time>
      </trkpt>
      <trkpt lat="47.21704" lon="-1.1098">
        <ele>193</ele>
        <time>2018-03-10T16:32:18Z</time>
      </trkpt>
      <trkpt lat="47.21721" lon="-1.10962">
        <ele>193</ele>
        <time>2018-03-10T16:32:24Z</time>
      </trkpt>
      <trkpt lat="47.21738" lon="-1.10947">
        <ele>193</ele>
        <time>2018-03-10T16:32:31Z</time>
      </trkpt>
      <trkpt lat="47.2175" lon="-1.10932">
        <ele>193</ele>
        <time>2018-03-10T16:32:37Z</time>
      </trkpt>
      <trkpt lat="47.21763" lon="-1.10916">
        <ele>193</ele>
        <time>2018-03-10T16:32:44Z</time>
      </trkpt>
      <trkpt lat="47.21775" lon="-1.10903">
        <ele>193</ele>
        <time>2018-03-10T16:32:51Z</time>
      </trkpt>
      <trkpt lat="47.21778" lon="-1.10894">
        <ele>193</ele>
        <time>2018-03-10T16:32:55Z</time>
      </trkpt>
      <trkpt lat="47.21778" lon="-1.10891">
        <ele>193</ele>
        <time>2018-03-10T16:32:56Z</time>
      </trkpt>
      <trkpt lat="47.21769" lon="-1.10872">
        <ele>193</ele>
        <time>2018-03-10T16:33:01Z</time>
      </trkpt>
      <trkpt lat="47.21753" lon="-1.10832">
        <ele>192</ele>
        <time>2018-03-10T16:33:09Z</time>
      </trkpt>
      <trkpt lat="47.21741" lon="-1.10806">
        <ele>192</ele>
        <time>2018-03-10T16:33:14Z</time>
      </trkpt>
      <trkpt lat="47.21739" lon="-1.10801">
        <ele>192</ele>
        <time>2018-03-10T16:33:15Z</time>
      </trkpt>
      <trkpt lat="47.21734" lon="-1.1079">
        <ele>192</ele>
        <time>2018-03-10T16:33:17Z</time>
      </trkpt>
      <trkpt lat="47.21721" lon="-1.10758">
        <ele>191</ele>
        <time>2018-03-10T16:33:23Z</time>
      </trkpt>
      <trkpt lat="47.21701" lon="-1.10708">
        <ele>190</ele>
        <time>2018-03-10T16:33:31Z</time>
      </trkpt>
      <trkpt lat="47.21689" lon="-1.10677">
        <ele>190</ele>
        <time>2018-03-10T16:33:36Z</time>
      </trkpt>
      <trkpt lat="47.21679" lon="-1.10651">
        <ele>190</ele>
        <time>2018-03-10T16:33:40Z</time>
      </trkpt>
      <trkpt lat="47.21669" lon="-1.10622">
        <ele>189</ele>
        <time>2018-03-10T16:33:46Z</time>
      </trkpt>
      <trkpt lat="47.21666" lon="-1.106">
        <ele>189</ele>
        <time>2018-03-10T16:33:52Z</time>
      </trkpt>
      <trkpt lat="47.21677" lon="-1.10592">
        <ele>189</ele>
        <time>2018-03-10T16:33:56Z</time>
      </trkpt>
      <trkpt lat="47.21681" lon="-1.10591">
        <ele>189</ele>
        <time>2018-03-10T16:33:57Z</time>
      </trkpt>
      <trkpt lat="47.21707" lon="-1.10583">
        <ele>189</ele>
        <time>2018-03-10T16:34:03Z</time>
      </trkpt>
      <trkpt lat="47.21751" lon="-1.10571">
        <ele>190</ele>
        <time>2018-03-10T16:34:13Z</time>
      </trkpt>
      <trkpt lat="47.21755" lon="-1.10569">
        <ele>190</ele>
        <time>2018-03-10T16:34:14Z</time>
      </trkpt>
      <trkpt lat="47.21786" lon="-1.10562">
        <ele>191</ele>
        <time>2018-03-10T16:34:22Z</time>
      </trkpt>
      <trkpt lat="47.21794" lon="-1.1056">
        <ele>191</ele>
        <time>2018-03-10T16:34:24Z</time>
      </trkpt>
      <trkpt lat="47.21825" lon="-1.10551">
        <ele>192</ele>
        <time>2018-03-10T16:34:32Z</time>
      </trkpt>
      <trkpt lat="47.21836" lon="-1.10547">
        <ele>192</ele>
        <time>2018-03-10T16:34:35Z</time>
      </trkpt>
      <trkpt lat="47.2186" lon="-1.10541">
        <ele>193</ele>
        <time>2018-03-10T16:34:41Z</time>
      </trkpt>
      <trkpt lat="47.21875" lon="-1.10537">
        <ele>193</ele>
        <time>2018-03-10T16:34:45Z</time>
      </trkpt>
      <trkpt lat="47.21903" lon="-1.10529">
        <ele>194</ele>
        <time>2018-03-10T16:34:52Z</time>
      </trkpt>
      <trkpt lat="47.21927" lon="-1.10522">
        <ele>194</ele>
        <time>2018-03-10T16:34:58Z</time>
      </trkpt>
      <trkpt lat="47.21939" lon="-1.10518">
        <ele>194</ele>
        <time>2018-03-10T16:35:01Z</time>
      </trkpt>
      <trkpt lat="47.21975" lon="-1.10509">
        <ele>195</ele>
        <time>2018-03-10T16:35:10Z</time>
      </trkpt>
      <trkpt lat="47.21999" lon="-1.10502">
        <ele>195</ele>
        <time>2018-03-10T16:35:16Z</time>
      </trkpt>
      <trkpt lat="47.22014" lon="-1.10497">
        <ele>196</ele>
        <time>2018-03-10T16:35:20Z</time>
      </trkpt>
      <trkpt lat="47.22039" lon="-1.10491">
        <ele>196</ele>
        <time>2018-03-10T16:35:27Z</time>
      </trkpt>
      <trkpt lat="47.22075" lon="-1.10481">
        <ele>196</ele>
        <time>2018-03-10T16:35:37Z</time>
      </trkpt>
      <trkpt lat="47.22082" lon="-1.10479">
        <ele>196</ele>
        <time>2018-03-10T16:35:39Z</time>
      </trkpt>
      <trkpt lat="47.22104" lon="-1.10473">
        <ele>196</ele>
        <time>2018-03-10T16:35:45Z</time>
      </trkpt>
      <trkpt lat="47.22141" lon="-1.10462">
        <ele>197</ele>
        <time>2018-03-10T16:35:55Z</time>
      </trkpt>
      <trkpt lat="47.22167" lon="-1.10454">
        <ele>197</ele>
        <time>2018-03-10T16:36:02Z</time>
      </trkpt>
      <trkpt lat="47.22182" lon="-1.10451">
        <ele>197</ele>
        <time>2018-03-10T16:36:06Z</time>
      </trkpt>
      <trkpt lat="47.22202" lon="-1.10441">
        <ele>197</ele>
        <time>2018-03-10T16:36:12Z</time>
      </trkpt>
      <trkpt lat="47.22223" lon="-1.10414">
        <ele>197</ele>
        <time>2018-03-10T16:36:19Z</time>
      </trkpt>
      <trkpt lat="47.22258" lon="-1.10374">
        <ele>197</ele>
        <time>2018-03-10T16:36:30Z</time>
      </trkpt>
      <trkpt lat="47.22289" lon="-1.10339">
        <ele>198</ele>
        <time>2018-03-10T16:36:40Z</time>
      </trkpt>
      <trkpt lat="47.22324" lon="-1.10299">
        <ele>198</ele>
        <time>2018-03-10T16:36:51Z</time>
      </trkpt>
      <trkpt lat="47.22355" lon="-1.10265">
        <ele>198</ele>
        <time>2018-03-10T16:37:00Z</time>
      </trkpt>
      <trkpt lat="47.22388" lon="-1.10228">
        <ele>197</ele>
        <time>2018-03-10T16:37:10Z</time>
      </trkpt>
      <trkpt lat="47.22423" lon="-1.10188">
        <ele>197</ele>
        <time>2018-03-10T16:37:20Z</time>
      </trkpt>
      <trkpt lat="47.22455" lon="-1.10153">
        <ele>197</ele>
        <time>2018-03-10T16:37:29Z</time>
      </trkpt>
      <trkpt lat="47.2249" lon="-1.10113">
        <ele>196</ele>
        <time>2018-03-10T16:37:39Z</time>
      </trkpt>
      <trkpt lat="47.22497" lon="-1.10106">
        <ele>196</ele>
        <time>2018-03-10T16:37:41Z</time>
      </trkpt>
      <trkpt lat="47.22525" lon="-1.10077">
        <ele>196</ele>
        <time>2018-03-10T16:37:49Z</time>
      </trkpt>
      <trkpt lat="47.22555" lon="-1.1005">
        <ele>196</ele>
        <time>2018-03-10T16:37:56Z</time>
      </trkpt>
      <trkpt lat="47.22579" lon="-1.10021">
        <ele>196</ele>
        <time>2018-03-10T16:38:03Z</time>
      </trkpt>
      <trkpt lat="47.22603" lon="-1.09991">
        <ele>196</ele>
        <time>2018-03-10T16:38:11Z</time>
      </trkpt>
      <trkpt lat="47.22627" lon="-1.09964">
        <ele>196</ele>
        <time>2018-03-10T16:38:19Z</time>
      </trkpt>
      <trkpt lat="47.22654" lon="-1.09936">
        <ele>196</ele>
        <time>2018-03-10T16:38:27Z</time>
      </trkpt>
      <trkpt lat="47.22682" lon="-1.09914">
        <ele>196</ele>
        <time>2018-03-10T16:38:35Z</time>
      </trkpt>
      <trkpt lat="47.22706" lon="-1.09893">
        <ele>196</ele>
        <time>2018-03-10T16:38:42Z</time>
      </trkpt>
      <trkpt lat="47.22742" lon="-1.09863">
        <ele>197</ele>
        <time>2018-03-10T16:38:52Z</time>
      </trkpt>
      <trkpt lat="47.22773" lon="-1.09837">
        <ele>197</ele>
        <time>2018-03-10T16:39:00Z</time>
      </trkpt>
      <trkpt lat="47.22808" lon="-1.09809">
        <ele>197</ele>
        <time>2018-03-10T16:39:10Z</time>
      </trkpt>
      <trkpt lat="47.22832" lon="-1.09783">
        <ele>197</ele>
        <time>2018-03-10T16:39:18Z</time>
      </trkpt>
      <trkpt lat="47.22854" lon="-1.09752">
        <ele>197</ele>
        <time>2018-03-10T16:39:26Z</time>
      </trkpt>
      <trkpt lat="47.22877" lon="-1.09718">
        <ele>196</ele>
        <time>2018-03-10T16:39:35Z</time>
      </trkpt>
      <trkpt lat="47.22888" lon="-1.09697">
        <ele>196</ele>
        <time>2018-03-10T16:39:42Z</time>
      </trkpt>
      <trkpt lat="47.22893" lon="-1.09697">
        <ele>196</ele>
        <time>2018-03-10T16:39:56Z</time>
      </trkpt>
      <trkpt lat="47.22897" lon="-1.09696">
        <ele>196</ele>
        <time>2018-03-10T16:39:58Z</time>
      </trkpt>
      <trkpt lat="47.229" lon="-1.09695">
        <ele>197</ele>
        <time>2018-03-10T16:40:01Z</time>
      </trkpt>
      <trkpt lat="47.22902" lon="-1.09692">
        <ele>197</ele>
        <time>2018-03-10T16:43:29Z</time>
      </trkpt>
      <trkpt lat="47.22905" lon="-1.09685">
        <ele>197</ele>
        <time>2018-03-10T16:43:32Z</time>
      </trkpt>
      <trkpt lat="47.2292" lon="-1.09667">
        <ele>198</ele>
        <time>2018-03-10T16:43:38Z</time>
      </trkpt>
      <trkpt lat="47.2294" lon="-1.09646">
        <ele>198</ele>
        <time>2018-03-10T16:43:45Z</time>
      </trkpt>
      <trkpt lat="47.22954" lon="-1.0963">
        <ele>198</ele>
        <time>2018-03-10T16:43:52Z</time>
      </trkpt>
      <trkpt lat="47.22957" lon="-1.09628">
        <ele>198</ele>
        <time>2018-03-10T16:43:54Z</time>
      </trkpt>
      <trkpt lat="47.22964" lon="-1.09625">
        <ele>198</ele>
        <time>2018-03-10T16:43:57Z</time>
      </trkpt>
      <trkpt lat="47.22981" lon="-1.09619">
        <ele>198</ele>
        <time>2018-03-10T16:44:03Z</time>
      </trkpt>
      <trkpt lat="47.23003" lon="-1.09612">
        <ele>198</ele>
        <time>2018-03-10T16:44:10Z</time>
      </trkpt>
      <trkpt lat="47.2302" lon="-1.09605">
        <ele>198</ele>
        <time>2018-03-10T16:44:16Z</time>
      </trkpt>
      <trkpt lat="47.23041" lon="-1.09598">
        <ele>199</ele>
        <time>2018-03-10T16:44:23Z</time>
      </trkpt>
      <trkpt lat="47.23064" lon="-1.09594">
        <ele>199</ele>
        <time>2018-03-10T16:44:29Z</time>
      </trkpt>
      <trkpt lat="47.23081" lon="-1.09588">
        <ele>199</ele>
        <time>2018-03-10T16:44:34Z</time>
      </trkpt>
      <trkpt lat="47.23085" lon="-1.09586">
        <ele>199</ele>
        <time>2018-03-10T16:44:35Z</time>
      </trkpt>
      <trkpt lat="47.231" lon="-1.09582">
        <ele>200</ele>
        <time>2018-03-10T16:44:39Z</time>
      </trkpt>
      <trkpt lat="47.23118" lon="-1.09575">
        <ele>200</ele>
        <time>2018-03-10T16:44:44Z</time>
      </trkpt>
      <trkpt lat="47.23139" lon="-1.09565">
        <ele>200</ele>
        <time>2018-03-10T16:44:51Z</time>
      </trkpt>
      <trkpt lat="47.23157" lon="-1.09558">
        <ele>200</ele>
        <time>2018-03-10T16:44:56Z</time>
      </trkpt>
      <trkpt lat="47.23171" lon="-1.09556">
        <ele>200</ele>
        <time>2018-03-10T16:45:00Z</time>
      </trkpt>
      <trkpt lat="47.23179" lon="-1.09555">
        <ele>201</ele>
        <time>2018-03-10T16:45:02Z</time>
      </trkpt>
      <trkpt lat="47.23206" lon="-1.09547">
        <ele>201</ele>
        <time>2018-03-10T16:45:09Z</time>
      </trkpt>
      <trkpt lat="47.23225" lon="-1.09539">
        <ele>201</ele>
        <time>2018-03-10T16:45:15Z</time>
      </trkpt>
      <trkpt lat="47.23236" lon="-1.09528">
        <ele>201</ele>
        <time>2018-03-10T16:45:20Z</time>
      </trkpt>
      <trkpt lat="47.23246" lon="-1.09514">
        <ele>201</ele>
        <time>2018-03-10T16:45:26Z</time>
      </trkpt>
      <trkpt lat="47.23267" lon="-1.09487">
        <ele>201</ele>
        <time>2018-03-10T16:45:34Z</time>
      </trkpt>
      <trkpt lat="47.23287" lon="-1.09461">
        <ele>201</ele>
        <time>2018-03-10T16:45:42Z</time>
      </trkpt>
      <trkpt lat="47.23302" lon="-1.09448">
        <ele>200</ele>
        <time>2018-03-10T16:45:47Z</time>
      </trkpt>
      <trkpt lat="47.23314" lon="-1.09432">
        <ele>200</ele>
        <time>2018-03-10T16:45:52Z</time>
      </trkpt>
      <trkpt lat="47.23329" lon="-1.09409">
        <ele>200</ele>
        <time>2018-03-10T16:45:58Z</time>
      </trkpt>
      <trkpt lat="47.23334" lon="-1.094">
        <ele>199</ele>
        <time>2018-03-10T16:46:01Z</time>
      </trkpt>
      <trkpt lat="47.23339" lon="-1.09394">
        <ele>199</ele>
        <time>2018-03-10T16:46:03Z</time>
      </trkpt>
      <trkpt lat="47.23355" lon="-1.09372">
        <ele>199</ele>
        <time>2018-03-10T16:46:08Z</time>
      </trkpt>
      <trkpt lat="47.23365" lon="-1.09351">
        <ele>199</ele>
        <time>2018-03-10T16:46:13Z</time>
      </trkpt>
      <trkpt lat="47.23373" lon="-1.09331">
        <ele>199</ele>
        <time>2018-03-10T16:46:18Z</time>
      </trkpt>
      <trkpt lat="47.23378" lon="-1.09313">
        <ele>198</ele>
        <time>2018-03-10T16:46:22Z</time>
      </trkpt>
      <trkpt lat="47.23379" lon="-1.09309">
        <ele>198</ele>
        <time>2018-03-10T16:46:23Z</time>
      </trkpt>
      <trkpt lat="47.23384" lon="-1.09285">
        <ele>198</ele>
        <time>2018-03-10T16:46:28Z</time>
      </trkpt>
      <trkpt lat="47.23389" lon="-1.09262">
        <ele>197</ele>
        <time>2018-03-10T16:46:33Z</time>
      </trkpt>
      <trkpt lat="47.23391" lon="-1.09257">
        <ele>197</ele>
        <time>2018-03-10T16:46:34Z</time>
      </trkpt>
      <trkpt lat="47.23394" lon="-1.09232">
        <ele>197</ele>
        <time>2018-03-10T16:46:39Z</time>
      </trkpt>
      <trkpt lat="47.23402" lon="-1.09204">
        <ele>196</ele>
        <time>2018-03-10T16:46:44Z</time>
      </trkpt>
      <trkpt lat="47.23407" lon="-1.09182">
        <ele>196</ele>
        <time>2018-03-10T16:46:49Z</time>
      </trkpt>
      <trkpt lat="47.23409" lon="-1.09161">
        <ele>195</ele>
        <time>2018-03-10T16:46:54Z</time>
      </trkpt>
      <trkpt lat="47.23409" lon="-1.09157">
        <ele>195</ele>
        <time>2018-03-10T16:46:55Z</time>
      </trkpt>
      <trkpt lat="47.2341" lon="-1.09134">
        <ele>195</ele>
        <time>2018-03-10T16:47:00Z</time>
      </trkpt>
      <trkpt lat="47.23416" lon="-1.09102">
        <ele>195</ele>
        <time>2018-03-10T16:47:05Z</time>
      </trkpt>
      <trkpt lat="47.23422" lon="-1.09072">
        <ele>195</ele>
        <time>2018-03-10T16:47:11Z</time>
      </trkpt>
      <trkpt lat="47.23427" lon="-1.09051">
        <ele>194</ele>
        <time>2018-03-10T16:47:16Z</time>
      </trkpt>
      <trkpt lat="47.2343" lon="-1.09014">
        <ele>194</ele>
        <time>2018-03-10T16:47:23Z</time>
      </trkpt>
      <trkpt lat="47.23433" lon="-1.09">
        <ele>194</ele>
        <time>2018-03-10T16:47:26Z</time>
      </trkpt>
      <trkpt lat="47.23438" lon="-1.08986">
        <ele>194</ele>
        <time>2018-03-10T16:47:29Z</time>
      </trkpt>
      <trkpt lat="47.23448" lon="-1.0896">
        <ele>194</ele>
        <time>2018-03-10T16:47:35Z</time>
      </trkpt>
      <trkpt lat="47.2346" lon="-1.08939">
        <ele>195</ele>
        <time>2018-03-10T16:47:41Z</time>
      </trkpt>
      <trkpt lat="47.23474" lon="-1.08918">
        <ele>195</ele>
        <time>2018-03-10T16:47:46Z</time>
      </trkpt>
      <trkpt lat="47.23476" lon="-1.08914">
        <ele>195</ele>
        <time>2018-03-10T16:47:47Z</time>
      </trkpt>
      <trkpt lat="47.2349" lon="-1.0889">
        <ele>196</ele>
        <time>2018-03-10T16:47:53Z</time>
      </trkpt>
      <trkpt lat="47.23499" lon="-1.08871">
        <ele>196</ele>
        <time>2018-03-10T16:47:58Z</time>
      </trkpt>
      <trkpt lat="47.23511" lon="-1.08846">
        <ele>196</ele>
        <time>2018-03-10T16:48:04Z</time>
      </trkpt>
      <trkpt lat="47.23528" lon="-1.08816">
        <ele>196</ele>
        <time>2018-03-10T16:48:12Z</time>
      </trkpt>
      <trkpt lat="47.23541" lon="-1.08791">
        <ele>196</ele>
        <time>2018-03-10T16:48:18Z</time>
      </trkpt>
      <trkpt lat="47.23554" lon="-1.08764">
        <ele>196</ele>
        <time>2018-03-10T16:48:24Z</time>
      </trkpt>
      <trkpt lat="47.23567" lon="-1.08734">
        <ele>196</ele>
        <time>2018-03-10T16:48:31Z</time>
      </trkpt>
      <trkpt lat="47.23577" lon="-1.08712">
        <ele>195</ele>
        <time>2018-03-10T16:48:36Z</time>
      </trkpt>
      <trkpt lat="47.23588" lon="-1.08691">
        <ele>195</ele>
        <time>2018-03-10T16:48:42Z</time>
      </trkpt>
      <trkpt lat="47.236" lon="-1.08664">
        <ele>195</ele>
        <time>2018-03-10T16:48:49Z</time>
      </trkpt>
      <trkpt lat="47.23609" lon="-1.08633">
        <ele>195</ele>
        <time>2018-03-10T16:48:55Z</time>
      </trkpt>
      <trkpt lat="47.23625" lon="-1.08596">
        <ele>195</ele>
        <time>2018-03-10T16:49:02Z</time>
      </trkpt>
      <trkpt lat="47.2364" lon="-1.08567">
        <ele>195</ele>
        <time>2018-03-10T16:49:08Z</time>
      </trkpt>
      <trkpt lat="47.23651" lon="-1.08543">
        <ele>195</ele>
        <time>2018-03-10T16:49:13Z</time>
      </trkpt>
      <trkpt lat="47.23662" lon="-1.08523">
        <ele>195</ele>
        <time>2018-03-10T16:49:18Z</time>
      </trkpt>
      <trkpt lat="47.23665" lon="-1.08517">
        <ele>195</ele>
        <time>2018-03-10T16:49:20Z</time>
      </trkpt>
      <trkpt lat="47.23669" lon="-1.08516">
        <ele>195</ele>
        <time>2018-03-10T16:49:22Z</time>
      </trkpt>
      <trkpt lat="47.23674" lon="-1.08521">
        <ele>195</ele>
        <time>2018-03-10T16:49:25Z</time>
      </trkpt>
      <trkpt lat="47.23683" lon="-1.08528">
        <ele>195</ele>
        <time>2018-03-10T16:50:54Z</time>
      </trkpt>
      <trkpt lat="47.23689" lon="-1.08537">
        <ele>195</ele>
        <time>2018-03-10T16:50:58Z</time>
      </trkpt>
      <trkpt lat="47.23702" lon="-1.08557">
        <ele>195</ele>
        <time>2018-03-10T16:51:03Z</time>
      </trkpt>
      <trkpt lat="47.23719" lon="-1.08579">
        <ele>196</ele>
        <time>2018-03-10T16:51:09Z</time>
      </trkpt>
      <trkpt lat="47.23737" lon="-1.08604">
        <ele>195</ele>
        <time>2018-03-10T16:51:16Z</time>
      </trkpt>
      <trkpt lat="47.23752" lon="-1.08629">
        <ele>195</ele>
        <time>2018-03-10T16:51:22Z</time>
      </trkpt>
      <trkpt lat="47.23773" lon="-1.08657">
        <ele>194</ele>
        <time>2018-03-10T16:51:27Z</time>
      </trkpt>
      <trkpt lat="47.23782" lon="-1.08671">
        <ele>194</ele>
        <time>2018-03-10T16:51:30Z</time>
      </trkpt>
      <trkpt lat="47.23793" lon="-1.08685">
        <ele>194</ele>
        <time>2018-03-10T16:51:33Z</time>
      </trkpt>
      <trkpt lat="47.23809" lon="-1.0871">
        <ele>194</ele>
        <time>2018-03-10T16:51:39Z</time>
      </trkpt>
      <trkpt lat="47.2383" lon="-1.08738">
        <ele>194</ele>
        <time>2018-03-10T16:51:45Z</time>
      </trkpt>
      <trkpt lat="47.23844" lon="-1.08756">
        <ele>195</ele>
        <time>2018-03-10T16:51:50Z</time>
      </trkpt>
      <trkpt lat="47.23852" lon="-1.08767">
        <ele>195</ele>
        <time>2018-03-10T16:51:53Z</time>
      </trkpt>
      <trkpt lat="47.23861" lon="-1.08781">
        <ele>196</ele>
        <time>2018-03-10T16:51:57Z</time>
      </trkpt>
      <trkpt lat="47.23873" lon="-1.088">
        <ele>196</ele>
        <time>2018-03-10T16:52:02Z</time>
      </trkpt>
      <trkpt lat="47.23879" lon="-1.0881">
        <ele>197</ele>
        <time>2018-03-10T16:52:04Z</time>
      </trkpt>
      <trkpt lat="47.23892" lon="-1.08828">
        <ele>197</ele>
        <time>2018-03-10T16:52:08Z</time>
      </trkpt>
      <trkpt lat="47.23898" lon="-1.08835">
        <ele>198</ele>
        <time>2018-03-10T16:52:10Z</time>
      </trkpt>
      <trkpt lat="47.23916" lon="-1.0886">
        <ele>198</ele>
        <time>2018-03-10T16:52:16Z</time>
      </trkpt>
      <trkpt lat="47.23932" lon="-1.08884">
        <ele>198</ele>
        <time>2018-03-10T16:52:22Z</time>
      </trkpt>
      <trkpt lat="47.23947" lon="-1.08906">
        <ele>198</ele>
        <time>2018-03-10T16:52:28Z</time>
      </trkpt>
      <trkpt lat="47.23957" lon="-1.08921">
        <ele>198</ele>
        <time>2018-03-10T16:52:32Z</time>
      </trkpt>
      <trkpt lat="47.23966" lon="-1.08932">
        <ele>198</ele>
        <time>2018-03-10T16:52:34Z</time>
      </trkpt>
      <trkpt lat="47.23983" lon="-1.08957">
        <ele>198</ele>
        <time>2018-03-10T16:52:40Z</time>
      </trkpt>
      <trkpt lat="47.23997" lon="-1.08978">
        <ele>198</ele>
        <time>2018-03-10T16:52:45Z</time>
      </trkpt>
      <trkpt lat="47.24015" lon="-1.09006">
        <ele>198</ele>
        <time>2018-03-10T16:52:51Z</time>
      </trkpt>
      <trkpt lat="47.24023" lon="-1.09019">
        <ele>197</ele>
        <time>2018-03-10T16:52:54Z</time>
      </trkpt>
      <trkpt lat="47.24032" lon="-1.09033">
        <ele>197</ele>
        <time>2018-03-10T16:52:57Z</time>
      </trkpt>
      <trkpt lat="47.24048" lon="-1.09049">
        <ele>196</ele>
        <time>2018-03-10T16:53:01Z</time>
      </trkpt>
      <trkpt lat="47.24051" lon="-1.09053">
        <ele>196</ele>
        <time>2018-03-10T16:53:02Z</time>
      </trkpt>
      <trkpt lat="47.24067" lon="-1.09076">
        <ele>196</ele>
        <time>2018-03-10T16:53:07Z</time>
      </trkpt>
      <trkpt lat="47.24075" lon="-1.09086">
        <ele>196</ele>
        <time>2018-03-10T16:53:09Z</time>
      </trkpt>
      <trkpt lat="47.24086" lon="-1.09101">
        <ele>196</ele>
        <time>2018-03-10T16:53:12Z</time>
      </trkpt>
      <trkpt lat="47.24102" lon="-1.09126">
        <ele>196</ele>
        <time>2018-03-10T16:53:18Z</time>
      </trkpt>
      <trkpt lat="47.24118" lon="-1.09148">
        <ele>196</ele>
        <time>2018-03-10T16:53:25Z</time>
      </trkpt>
      <trkpt lat="47.24132" lon="-1.09171">
        <ele>196</ele>
        <time>2018-03-10T16:53:31Z</time>
      </trkpt>
      <trkpt lat="47.24145" lon="-1.0919">
        <ele>197</ele>
        <time>2018-03-10T16:53:36Z</time>
      </trkpt>
      <trkpt lat="47.24154" lon="-1.09205">
        <ele>197</ele>
        <time>2018-03-10T16:53:40Z</time>
      </trkpt>
      <trkpt lat="47.24159" lon="-1.09212">
        <ele>198</ele>
        <time>2018-03-10T16:53:42Z</time>
      </trkpt>
      <trkpt lat="47.24167" lon="-1.09226">
        <ele>198</ele>
        <time>2018-03-10T16:53:46Z</time>
      </trkpt>
      <trkpt lat="47.24173" lon="-1.09233">
        <ele>199</ele>
        <time>2018-03-10T16:53:48Z</time>
      </trkpt>
      <trkpt lat="47.24193" lon="-1.09261">
        <ele>199</ele>
        <time>2018-03-10T16:53:55Z</time>
      </trkpt>
      <trkpt lat="47.24197" lon="-1.09267">
        <ele>200</ele>
        <time>2018-03-10T16:53:57Z</time>
      </trkpt>
      <trkpt lat="47.24204" lon="-1.09279">
        <ele>200</ele>
        <time>2018-03-10T16:54:01Z</time>
      </trkpt>
      <trkpt lat="47.24219" lon="-1.09301">
        <ele>200</ele>
        <time>2018-03-10T16:54:07Z</time>
      </trkpt>
      <trkpt lat="47.24221" lon="-1.09304">
        <ele>201</ele>
        <time>2018-03-10T16:54:08Z</time>
      </trkpt>
      <trkpt lat="47.24233" lon="-1.09322">
        <ele>201</ele>
        <time>2018-03-10T16:54:14Z</time>
      </trkpt>
      <trkpt lat="47.24248" lon="-1.09339">
        <ele>202</ele>
        <time>2018-03-10T16:54:18Z</time>
      </trkpt>
      <trkpt lat="47.24252" lon="-1.09344">
        <ele>202</ele>
        <time>2018-03-10T16:54:19Z</time>
      </trkpt>
      <trkpt lat="47.24267" lon="-1.09362">
        <ele>202</ele>
        <time>2018-03-10T16:54:24Z</time>
      </trkpt>
      <trkpt lat="47.24276" lon="-1.09374">
        <ele>202</ele>
        <time>2018-03-10T16:54:30Z</time>
      </trkpt>
      <trkpt lat="47.24281" lon="-1.09386">
        <ele>203</ele>
        <time>2018-03-10T16:58:44Z</time>
      </trkpt>
      <trkpt lat="47.24284" lon="-1.0939">
        <ele>203</ele>
        <time>2018-03-10T16:58:46Z</time>
      </trkpt>
      <trkpt lat="47.24295" lon="-1.09402">
        <ele>203</ele>
        <time>2018-03-10T16:58:57Z</time>
      </trkpt>
      <trkpt lat="47.24308" lon="-1.09421">
        <ele>204</ele>
        <time>2018-03-10T16:59:03Z</time>
      </trkpt>
      <trkpt lat="47.24323" lon="-1.09452">
        <ele>204</ele>
        <time>2018-03-10T16:59:09Z</time>
      </trkpt>
      <trkpt lat="47.24342" lon="-1.09484">
        <ele>205</ele>
        <time>2018-03-10T16:59:16Z</time>
      </trkpt>
      <trkpt lat="47.24357" lon="-1.09509">
        <ele>205</ele>
        <time>2018-03-10T16:59:22Z</time>
      </trkpt>
      <trkpt lat="47.24371" lon="-1.09524">
        <ele>205</ele>
        <time>2018-03-10T16:59:27Z</time>
      </trkpt>
      <trkpt lat="47.24374" lon="-1.09528">
        <ele>205</ele>
        <time>2018-03-10T16:59:28Z</time>
      </trkpt>
      <trkpt lat="47.24387" lon="-1.09554">
        <ele>205</ele>
        <time>2018-03-10T16:59:33Z</time>
      </trkpt>
      <trkpt lat="47.24402" lon="-1.09585">
        <ele>206</ele>
        <time>2018-03-10T16:59:39Z</time>
      </trkpt>
      <trkpt lat="47.24429" lon="-1.09625">
        <ele>206</ele>
        <time>2018-03-10T16:59:47Z</time>
      </trkpt>
      <trkpt lat="47.24447" lon="-1.09653">
        <ele>206</ele>
        <time>2018-03-10T16:59:52Z</time>
      </trkpt>
      <trkpt lat="47.24457" lon="-1.09668">
        <ele>206</ele>
        <time>2018-03-10T16:59:55Z</time>
      </trkpt>
      <trkpt lat="47.24488" lon="-1.09717">
        <ele>205</ele>
        <time>2018-03-10T17:00:04Z</time>
      </trkpt>
      <trkpt lat="47.24513" lon="-1.09757">
        <ele>204</ele>
        <time>2018-03-10T17:00:11Z</time>
      </trkpt>
      <trkpt lat="47.24541" lon="-1.098">
        <ele>203</ele>
        <time>2018-03-10T17:00:18Z</time>
      </trkpt>
      <trkpt lat="47.2456" lon="-1.09827">
        <ele>203</ele>
        <time>2018-03-10T17:00:24Z</time>
      </trkpt>
      <trkpt lat="47.24573" lon="-1.09848">
        <ele>202</ele>
        <time>2018-03-10T17:00:30Z</time>
      </trkpt>
      <trkpt lat="47.24585" lon="-1.09867">
        <ele>202</ele>
        <time>2018-03-10T17:00:35Z</time>
      </trkpt>
      <trkpt lat="47.2459" lon="-1.09874">
        <ele>202</ele>
        <time>2018-03-10T17:00:37Z</time>
      </trkpt>
      <trkpt lat="47.24607" lon="-1.09898">
        <ele>201</ele>
        <time>2018-03-10T17:00:43Z</time>
      </trkpt>
      <trkpt lat="47.24612" lon="-1.09906">
        <ele>201</ele>
        <time>2018-03-10T17:00:45Z</time>
      </trkpt>
      <trkpt lat="47.24618" lon="-1.09915">
        <ele>201</ele>
        <time>2018-03-10T17:00:48Z</time>
      </trkpt>
      <trkpt lat="47.24634" lon="-1.0994">
        <ele>200</ele>
        <time>2018-03-10T17:00:54Z</time>
      </trkpt>
      <trkpt lat="47.24646" lon="-1.09964">
        <ele>200</ele>
        <time>2018-03-10T17:01:00Z</time>
      </trkpt>
      <trkpt lat="47.24657" lon="-1.09979">
        <ele>200</ele>
        <time>2018-03-10T17:01:05Z</time>
      </trkpt>
      <trkpt lat="47.24659" lon="-1.09983">
        <ele>200</ele>
        <time>2018-03-10T17:01:06Z</time>
      </trkpt>
      <trkpt lat="47.24669" lon="-1.10003">
        <ele>199</ele>
        <time>2018-03-10T17:01:12Z</time>
      </trkpt>
      <trkpt lat="47.24681" lon="-1.10026">
        <ele>199</ele>
        <time>2018-03-10T17:01:19Z</time>
      </trkpt>
      <trkpt lat="47.24692" lon="-1.10043">
        <ele>199</ele>
        <time>2018-03-10T17:01:24Z</time>
      </trkpt>
      <trkpt lat="47.2472" lon="-1.10088">
        <ele>198</ele>
        <time>2018-03-10T17:01:51Z</time>
      </trkpt>
      <trkpt lat="47.24725" lon="-1.10096">
        <ele>198</ele>
        <time>2018-03-10T17:01:55Z</time>
      </trkpt>
      <trkpt lat="47.24736" lon="-1.10118">
        <ele>198</ele>
        <time>2018-03-10T17:02:02Z</time>
      </trkpt>
      <trkpt lat="47.24747" lon="-1.10133">
        <ele>197</ele>
        <time>2018-03-10T17:02:07Z</time>
      </trkpt>
      <trkpt lat="47.24765" lon="-1.1015">
        <ele>197</ele>
        <time>2018-03-10T17:02:13Z</time>
      </trkpt>
      <trkpt lat="47.24784" lon="-1.10162">
        <ele>197</ele>
        <time>2018-03-10T17:02:19Z</time>
      </trkpt>
      <trkpt lat="47.24799" lon="-1.1017">
        <ele>197</ele>
        <time>2018-03-10T17:02:25Z</time>
      </trkpt>
      <trkpt lat="47.24805" lon="-1.10175">
        <ele>197</ele>
        <time>2018-03-10T17:02:28Z</time>
      </trkpt>
      <trkpt lat="47.2481" lon="-1.10179">
        <ele>197</ele>
        <time>2018-03-10T17:02:30Z</time>
      </trkpt>
      <trkpt lat="47.24825" lon="-1.10189">
        <ele>197</ele>
        <time>2018-03-10T17:02:36Z</time>
      </trkpt>
      <trkpt lat="47.24843" lon="-1.10202">
        <ele>197</ele>
        <time>2018-03-10T17:02:43Z</time>
      </trkpt>
      <trkpt lat="47.24854" lon="-1.10208">
        <ele>197</ele>
        <time>2018-03-10T17:02:47Z</time>
      </trkpt>
      <trkpt lat="47.24859" lon="-1.1021">
        <ele>197</ele>
        <time>2018-03-10T17:02:49Z</time>
      </trkpt>
      <trkpt lat="47.24872" lon="-1.10219">
        <ele>198</ele>
        <time>2018-03-10T17:02:55Z</time>
      </trkpt>
      <trkpt lat="47.24883" lon="-1.10225">
        <ele>198</ele>
        <time>2018-03-10T17:03:01Z</time>
      </trkpt>
      <trkpt lat="47.24885" lon="-1.10227">
        <ele>198</ele>
        <time>2018-03-10T17:03:03Z</time>
      </trkpt>
      <trkpt lat="47.24891" lon="-1.1023">
        <ele>198</ele>
        <time>2018-03-10T17:03:07Z</time>
      </trkpt>
      <trkpt lat="47.24905" lon="-1.10238">
        <ele>198</ele>
        <time>2018-03-10T17:03:14Z</time>
      </trkpt>
      <trkpt lat="47.24915" lon="-1.10245">
        <ele>198</ele>
        <time>2018-03-10T17:03:20Z</time>
      </trkpt>
      <trkpt lat="47.24922" lon="-1.10253">
        <ele>199</ele>
        <time>2018-03-10T17:03:26Z</time>
      </trkpt>
      <trkpt lat="47.24924" lon="-1.10257">
        <ele>199</ele>
        <time>2018-03-10T17:03:28Z</time>
      </trkpt>
      <trkpt lat="47.24927" lon="-1.10266">
        <ele>199</ele>
        <time>2018-03-10T17:03:32Z</time>
      </trkpt>
      <trkpt lat="47.24926" lon="-1.10286">
        <ele>199</ele>
        <time>2018-03-10T17:03:38Z</time>
      </trkpt>
      <trkpt lat="47.24922" lon="-1.10311">
        <ele>199</ele>
        <time>2018-03-10T17:03:44Z</time>
      </trkpt>
      <trkpt lat="47.24918" lon="-1.10334">
        <ele>199</ele>
        <time>2018-03-10T17:03:50Z</time>
      </trkpt>
      <trkpt lat="47.24911" lon="-1.10366">
        <ele>199</ele>
        <time>2018-03-10T17:03:58Z</time>
      </trkpt>
      <trkpt lat="47.24908" lon="-1.10387">
        <ele>199</ele>
        <time>2018-03-10T17:04:04Z</time>
      </trkpt>
      <trkpt lat="47.24903" lon="-1.10411">
        <ele>200</ele>
        <time>2018-03-10T17:04:10Z</time>
      </trkpt>
      <trkpt lat="47.24896" lon="-1.10435">
        <ele>200</ele>
        <time>2018-03-10T17:04:16Z</time>
      </trkpt>
      <trkpt lat="47.2489" lon="-1.10461">
        <ele>200</ele>
        <time>2018-03-10T17:04:22Z</time>
      </trkpt>
      <trkpt lat="47.24889" lon="-1.10465">
        <ele>200</ele>
        <time>2018-03-10T17:04:23Z</time>
      </trkpt>
      <trkpt lat="47.24884" lon="-1.10487">
        <ele>200</ele>
        <time>2018-03-10T17:04:29Z</time>
      </trkpt>
      <trkpt lat="47.2488" lon="-1.10506">
        <ele>200</ele>
        <time>2018-03-10T17:04:34Z</time>
      </trkpt>
      <trkpt lat="47.24871" lon="-1.10543">
        <ele>201</ele>
        <time>2018-03-10T17:04:43Z</time>
      </trkpt>
      <trkpt lat="47.2487" lon="-1.10548">
        <ele>201</ele>
        <time>2018-03-10T17:04:44Z</time>
      </trkpt>
      <trkpt lat="47.24864" lon="-1.10578">
        <ele>201</ele>
        <time>2018-03-10T17:04:51Z</time>
      </trkpt>
      <trkpt lat="47.24855" lon="-1.10613">
        <ele>202</ele>
        <time>2018-03-10T17:04:59Z</time>
      </trkpt>
      <trkpt lat="47.24853" lon="-1.10622">
        <ele>202</ele>
        <time>2018-03-10T17:05:01Z</time>
      </trkpt>
      <trkpt lat="47.24846" lon="-1.10653">
        <ele>202</ele>
        <time>2018-03-10T17:05:07Z</time>
      </trkpt>
      <trkpt lat="47.24837" lon="-1.107">
        <ele>202</ele>
        <time>2018-03-10T17:05:16Z</time>
      </trkpt>
      <trkpt lat="47.2483" lon="-1.10729">
        <ele>202</ele>
        <time>2018-03-10T17:05:22Z</time>
      </trkpt>
      <trkpt lat="47.24821" lon="-1.10769">
        <ele>202</ele>
        <time>2018-03-10T17:05:30Z</time>
      </trkpt>
      <trkpt lat="47.24808" lon="-1.10825">
        <ele>202</ele>
        <time>2018-03-10T17:05:40Z</time>
      </trkpt>
      <trkpt lat="47.24798" lon="-1.10871">
        <ele>202</ele>
        <time>2018-03-10T17:05:47Z</time>
      </trkpt>
      <trkpt lat="47.24788" lon="-1.10917">
        <ele>201</ele>
        <time>2018-03-10T17:05:55Z</time>
      </trkpt>
      <trkpt lat="47.2478" lon="-1.10956">
        <ele>201</ele>
        <time>2018-03-10T17:06:01Z</time>
      </trkpt>
      <trkpt lat="47.24779" lon="-1.10963">
        <ele>201</ele>
        <time>2018-03-10T17:06:02Z</time>
      </trkpt>
      <trkpt lat="47.24771" lon="-1.11002">
        <ele>200</ele>
        <time>2018-03-10T17:06:08Z</time>
      </trkpt>
      <trkpt lat="47.24768" lon="-1.11017">
        <ele>200</ele>
        <time>2018-03-10T17:06:10Z</time>
      </trkpt>
      <trkpt lat="47.24762" lon="-1.11049">
        <ele>200</ele>
        <time>2018-03-10T17:06:15Z</time>
      </trkpt>
      <trkpt lat="47.24752" lon="-1.11095">
        <ele>200</ele>
        <time>2018-03-10T17:06:23Z</time>
      </trkpt>
      <trkpt lat="47.24743" lon="-1.11138">
        <ele>200</ele>
        <time>2018-03-10T17:06:30Z</time>
      </trkpt>
      <trkpt lat="47.24733" lon="-1.11186">
        <ele>200</ele>
        <time>2018-03-10T17:06:38Z</time>
      </trkpt>
      <trkpt lat="47.24725" lon="-1.11222">
        <ele>200</ele>
        <time>2018-03-10T17:06:45Z</time>
      </trkpt>
      <trkpt lat="47.24723" lon="-1.11238">
        <ele>200</ele>
        <time>2018-03-10T17:11:05Z</time>
      </trkpt>
      <trkpt lat="47.24722" lon="-1.11244">
        <ele>200</ele>
        <time>2018-03-10T17:11:08Z</time>
      </trkpt>
      <trkpt lat="47.24721" lon="-1.11249">
        <ele>200</ele>
        <time>2018-03-10T17:11:10Z</time>
      </trkpt>
      <trkpt lat="47.24718" lon="-1.11262">
        <ele>200</ele>
        <time>2018-03-10T17:11:14Z</time>
      </trkpt>
      <trkpt lat="47.24712" lon="-1.11291">
        <ele>201</ele>
        <time>2018-03-10T17:11:21Z</time>
      </trkpt>
      <trkpt lat="47.2471" lon="-1.11305">
        <ele>201</ele>
        <time>2018-03-10T17:11:24Z</time>
      </trkpt>
      <trkpt lat="47.24705" lon="-1.11323">
        <ele>201</ele>
        <time>2018-03-10T17:11:28Z</time>
      </trkpt>
      <trkpt lat="47.247" lon="-1.11354">
        <ele>201</ele>
        <time>2018-03-10T17:11:35Z</time>
      </trkpt>
      <trkpt lat="47.24694" lon="-1.11385">
        <ele>201</ele>
        <time>2018-03-10T17:11:42Z</time>
      </trkpt>
      <trkpt lat="47.24684" lon="-1.11429">
        <ele>202</ele>
        <time>2018-03-10T17:11:51Z</time>
      </trkpt>
      <trkpt lat="47.24678" lon="-1.11454">
        <ele>201</ele>
        <time>2018-03-10T17:14:46Z</time>
      </trkpt>
      <trkpt lat="47.24678" lon="-1.11465">
        <ele>201</ele>
        <time>2018-03-10T17:14:49Z</time>
      </trkpt>
      <trkpt lat="47.24675" lon="-1.11494">
        <ele>201</ele>
        <time>2018-03-10T17:14:55Z</time>
      </trkpt>
      <trkpt lat="47.24673" lon="-1.11519">
        <ele>201</ele>
        <time>2018-03-10T17:15:00Z</time>
      </trkpt>
      <trkpt lat="47.24671" lon="-1.11549">
        <ele>200</ele>
        <time>2018-03-10T17:15:06Z</time>
      </trkpt>
      <trkpt lat="47.24667" lon="-1.11563">
        <ele>200</ele>
        <time>2018-03-10T17:15:11Z</time>
      </trkpt>
      <trkpt lat="47.24666" lon="-1.11566">
        <ele>200</ele>
        <time>2018-03-10T17:15:17Z</time>
      </trkpt>
      <trkpt lat="47.24668" lon="-1.1157">
        <ele>200</ele>
        <time>2018-03-10T17:15:19Z</time>
      </trkpt>
      <trkpt lat="47.2467" lon="-1.11573">
        <ele>200</ele>
        <time>2018-03-10T17:15:21Z</time>
      </trkpt>
      <trkpt lat="47.24677" lon="-1.11585">
        <ele>200</ele>
        <time>2018-03-10T17:15:28Z</time>
      </trkpt>
      <trkpt lat="47.24682" lon="-1.11594">
        <ele>200</ele>
        <time>2018-03-10T17:15:31Z</time>
      </trkpt>
      <trkpt lat="47.24688" lon="-1.11604">
        <ele>200</ele>
        <time>2018-03-10T17:15:34Z</time>
      </trkpt>
      <trkpt lat="47.24704" lon="-1.11632">
        <ele>200</ele>
        <time>2018-03-10T17:15:41Z</time>
      </trkpt>
      <trkpt lat="47.24725" lon="-1.1167">
        <ele>200</ele>
        <time>2018-03-10T17:15:50Z</time>
      </trkpt>
      <trkpt lat="47.24743" lon="-1.11706">
        <ele>200</ele>
        <time>2018-03-10T17:15:58Z</time>
      </trkpt>
      <trkpt lat="47.24769" lon="-1.11757">
        <ele>200</ele>
        <time>2018-03-10T17:16:09Z</time>
      </trkpt>
      <trkpt lat="47.24792" lon="-1.11805">
        <ele>200</ele>
        <time>2018-03-10T17:16:19Z</time>
      </trkpt>
      <trkpt lat="47.24808" lon="-1.11832">
        <ele>200</ele>
        <time>2018-03-10T17:16:26Z</time>
      </trkpt>
      <trkpt lat="47.24827" lon="-1.11868">
        <ele>200</ele>
        <time>2018-03-10T17:16:35Z</time>
      </trkpt>
      <trkpt lat="47.24846" lon="-1.11893">
        <ele>201</ele>
        <time>2018-03-10T17:16:42Z</time>
      </trkpt>
      <trkpt lat="47.24866" lon="-1.11911">
        <ele>201</ele>
        <time>2018-03-10T17:16:48Z</time>
      </trkpt>
      <trkpt lat="47.24874" lon="-1.11916">
        <ele>201</ele>
        <time>2018-03-10T17:16:50Z</time>
      </trkpt>
      <trkpt lat="47.24907" lon="-1.11938">
        <ele>202</ele>
        <time>2018-03-10T17:16:59Z</time>
      </trkpt>
      <trkpt lat="47.24919" lon="-1.11946">
        <ele>202</ele>
        <time>2018-03-10T17:17:02Z</time>
      </trkpt>
      <trkpt lat="47.24944" lon="-1.11961">
        <ele>202</ele>
        <time>2018-03-10T17:17:08Z</time>
      </trkpt>
      <trkpt lat="47.24975" lon="-1.11982">
        <ele>202</ele>
        <time>2018-03-10T17:17:16Z</time>
      </trkpt>
      <trkpt lat="47.24996" lon="-1.11993">
        <ele>202</ele>
        <time>2018-03-10T17:17:22Z</time>
      </trkpt>
      <trkpt lat="47.25013" lon="-1.12004">
        <ele>201</ele>
        <time>2018-03-10T17:17:29Z</time>
      </trkpt>
      <trkpt lat="47.25034" lon="-1.12009">
        <ele>201</ele>
        <time>2018-03-10T17:17:34Z</time>
      </trkpt>
      <trkpt lat="47.25066" lon="-1.12024">
        <ele>200</ele>
        <time>2018-03-10T17:17:41Z</time>
      </trkpt>
      <trkpt lat="47.25074" lon="-1.12031">
        <ele>199</ele>
        <time>2018-03-10T17:17:43Z</time>
      </trkpt>
      <trkpt lat="47.2509" lon="-1.12049">
        <ele>199</ele>
        <time>2018-03-10T17:17:49Z</time>
      </trkpt>
      <trkpt lat="47.25091" lon="-1.12056">
        <ele>199</ele>
        <time>2018-03-10T17:17:51Z</time>
      </trkpt>
      <trkpt lat="47.25091" lon="-1.12063">
        <ele>199</ele>
        <time>2018-03-10T17:17:53Z</time>
      </trkpt>
      <trkpt lat="47.25098" lon="-1.12078">
        <ele>199</ele>
        <time>2018-03-10T17:17:58Z</time>
      </trkpt>
      <trkpt lat="47.25111" lon="-1.12094">
        <ele>198</ele>
        <time>2018-03-10T17:18:03Z</time>
      </trkpt>
      <trkpt lat="47.2513" lon="-1.12121">
        <ele>198</ele>
        <time>2018-03-10T17:18:10Z</time>
      </trkpt>
      <trkpt lat="47.25139" lon="-1.12131">
        <ele>198</ele>
        <time>2018-03-10T17:18:13Z</time>
      </trkpt>
      <trkpt lat="47.25159" lon="-1.12156">
        <ele>197</ele>
        <time>2018-03-10T17:18:20Z</time>
      </trkpt>
      <trkpt lat="47.2517" lon="-1.12169">
        <ele>197</ele>
        <time>2018-03-10T17:18:25Z</time>
      </trkpt>
      <trkpt lat="47.25189" lon="-1.12192">
        <ele>197</ele>
        <time>2018-03-10T17:18:32Z</time>
      </trkpt>
      <trkpt lat="47.25194" lon="-1.12202">
        <ele>196</ele>
        <time>2018-03-10T17:18:34Z</time>
      </trkpt>
      <trkpt lat="47.25203" lon="-1.12219">
        <ele>196</ele>
        <time>2018-03-10T17:18:38Z</time>
      </trkpt>
      <trkpt lat="47.25219" lon="-1.12253">
        <ele>195</ele>
        <time>2018-03-10T17:18:46Z</time>
      </trkpt>
      <trkpt lat="47.25234" lon="-1.12283">
        <ele>195</ele>
        <time>2018-03-10T17:18:54Z</time>
      </trkpt>
      <trkpt lat="47.25244" lon="-1.12296">
        <ele>194</ele>
        <time>2018-03-10T17:18:58Z</time>
      </trkpt>
      <trkpt lat="47.25249" lon="-1.12303">
        <ele>194</ele>
        <time>2018-03-10T17:19:00Z</time>
      </trkpt>
      <trkpt lat="47.25268" lon="-1.12327">
        <ele>193</ele>
        <time>2018-03-10T17:19:07Z</time>
      </trkpt>
      <trkpt lat="47.25282" lon="-1.12346">
        <ele>193</ele>
        <time>2018-03-10T17:19:12Z</time>
      </trkpt>
      <trkpt lat="47.25287" lon="-1.12354">
        <ele>193</ele>
        <time>2018-03-10T17:19:14Z</time>
      </trkpt>
      <trkpt lat="47.25305" lon="-1.12392">
        <ele>192</ele>
        <time>2018-03-10T17:19:22Z</time>
      </trkpt>
      <trkpt lat="47.25325" lon="-1.1243">
        <ele>191</ele>
        <time>2018-03-10T17:19:30Z</time>
      </trkpt>
      <trkpt lat="47.25341" lon="-1.12465">
        <ele>190</ele>
        <time>2018-03-10T17:19:37Z</time>
      </trkpt>
      <trkpt lat="47.25354" lon="-1.12488">
        <ele>190</ele>
        <time>2018-03-10T17:19:43Z</time>
      </trkpt>
      <trkpt lat="47.2537" lon="-1.12509">
        <ele>190</ele>
        <time>2018-03-10T17:19:50Z</time>
      </trkpt>
      <trkpt lat="47.25392" lon="-1.12539">
        <ele>191</ele>
        <time>2018-03-10T17:19:58Z</time>
      </trkpt>
      <trkpt lat="47.25401" lon="-1.12553">
        <ele>192</ele>
        <time>2018-03-10T17:20:02Z</time>
      </trkpt>
      <trkpt lat="47.25408" lon="-1.12563">
        <ele>193</ele>
        <time>2018-03-10T17:20:05Z</time>
      </trkpt>
      <trkpt lat="47.25417" lon="-1.12575">
        <ele>193</ele>
        <time>2018-03-10T17:20:09Z</time>
      </trkpt>
      <trkpt lat="47.25423" lon="-1.12585">
        <ele>194</ele>
        <time>2018-03-10T17:20:12Z</time>
      </trkpt>
      <trkpt lat="47.25427" lon="-1.12591">
        <ele>194</ele>
        <time>2018-03-10T17:20:14Z</time>
      </trkpt>
      <trkpt lat="47.25439" lon="-1.12607">
        <ele>195</ele>
        <time>2018-03-10T17:20:19Z</time>
      </trkpt>
      <trkpt lat="47.25446" lon="-1.12617">
        <ele>195</ele>
        <time>2018-03-10T17:20:22Z</time>
      </trkpt>
      <trkpt lat="47.25459" lon="-1.12633">
        <ele>196</ele>
        <time>2018-03-10T17:20:27Z</time>
      </trkpt>
      <trkpt lat="47.25467" lon="-1.12643">
        <ele>197</ele>
        <time>2018-03-10T17:20:30Z</time>
      </trkpt>
      <trkpt lat="47.25483" lon="-1.12663">
        <ele>197</ele>
        <time>2018-03-10T17:20:36Z</time>
      </trkpt>
      <trkpt lat="47.25488" lon="-1.12669">
        <ele>198</ele>
        <time>2018-03-10T17:20:38Z</time>
      </trkpt>
      <trkpt lat="47.25501" lon="-1.12686">
        <ele>198</ele>
        <time>2018-03-10T17:20:43Z</time>
      </trkpt>
      <trkpt lat="47.25515" lon="-1.12701">
        <ele>199</ele>
        <time>2018-03-10T17:20:48Z</time>
      </trkpt>
      <trkpt lat="47.25524" lon="-1.12709">
        <ele>199</ele>
        <time>2018-03-10T17:20:51Z</time>
      </trkpt>
      <trkpt lat="47.25549" lon="-1.12724">
        <ele>199</ele>
        <time>2018-03-10T17:20:58Z</time>
      </trkpt>
      <trkpt lat="47.25556" lon="-1.12727">
        <ele>200</ele>
        <time>2018-03-10T17:21:00Z</time>
      </trkpt>
      <trkpt lat="47.25573" lon="-1.12734">
        <ele>200</ele>
        <time>2018-03-10T17:21:05Z</time>
      </trkpt>
      <trkpt lat="47.25597" lon="-1.12746">
        <ele>201</ele>
        <time>2018-03-10T17:21:12Z</time>
      </trkpt>
      <trkpt lat="47.256" lon="-1.12748">
        <ele>201</ele>
        <time>2018-03-10T17:21:13Z</time>
      </trkpt>
      <trkpt lat="47.25637" lon="-1.12763">
        <ele>201</ele>
        <time>2018-03-10T17:21:23Z</time>
      </trkpt>
      <trkpt lat="47.25665" lon="-1.12776">
        <ele>202</ele>
        <time>2018-03-10T17:21:31Z</time>
      </trkpt>
      <trkpt lat="47.25674" lon="-1.12783">
        <ele>202</ele>
        <time>2018-03-10T17:21:34Z</time>
      </trkpt>
      <trkpt lat="47.25682" lon="-1.12792">
        <ele>202</ele>
        <time>2018-03-10T17:21:37Z</time>
      </trkpt>
      <trkpt lat="47.25709" lon="-1.12824">
        <ele>202</ele>
        <time>2018-03-10T17:21:45Z</time>
      </trkpt>
      <trkpt lat="47.25741" lon="-1.12858">
        <ele>202</ele>
        <time>2018-03-10T17:21:54Z</time>
      </trkpt>
      <trkpt lat="47.25762" lon="-1.12878">
        <ele>201</ele>
        <time>2018-03-10T17:22:00Z</time>
      </trkpt>
      <trkpt lat="47.25784" lon="-1.12902">
        <ele>201</ele>
        <time>2018-03-10T17:22:08Z</time>
      </trkpt>
      <trkpt lat="47.25786" lon="-1.12902">
        <ele>201</ele>
        <time>2018-03-10T17:22:09Z</time>
      </trkpt>
      <trkpt lat="47.25794" lon="-1.12903">
        <ele>202</ele>
        <time>2018-03-10T17:27:22Z</time>
      </trkpt>
      <trkpt lat="47.258" lon="-1.12905">
        <ele>202</ele>
        <time>2018-03-10T17:27:24Z</time>
      </trkpt>
      <trkpt lat="47.25824" lon="-1.12909">
        <ele>202</ele>
        <time>2018-03-10T17:27:30Z</time>
      </trkpt>
      <trkpt lat="47.25857" lon="-1.12914">
        <ele>202</ele>
        <time>2018-03-10T17:27:37Z</time>
      </trkpt>
      <trkpt lat="47.25891" lon="-1.12919">
        <ele>202</ele>
        <time>2018-03-10T17:27:42Z</time>
      </trkpt>
      <trkpt lat="47.2594" lon="-1.12925">
        <ele>201</ele>
        <time>2018-03-10T17:27:49Z</time>
      </trkpt>
      <trkpt lat="47.2599" lon="-1.12931">
        <ele>201</ele>
        <time>2018-03-10T17:27:56Z</time>
      </trkpt>
      <trkpt lat="47.26049" lon="-1.12941">
        <ele>201</ele>
        <time>2018-03-10T17:28:04Z</time>
      </trkpt>
      <trkpt lat="47.26062" lon="-1.12943">
        <ele>201</ele>
        <time>2018-03-10T17:28:06Z</time>
      </trkpt>
      <trkpt lat="47.26118" lon="-1.12952">
        <ele>202</ele>
        <time>2018-03-10T17:28:14Z</time>
      </trkpt>
      <trkpt lat="47.26124" lon="-1.12953">
        <ele>202</ele>
        <time>2018-03-10T17:28:15Z</time>
      </trkpt>
      <trkpt lat="47.26144" lon="-1.12956">
        <ele>202</ele>
        <time>2018-03-10T17:28:18Z</time>
      </trkpt>
      <trkpt lat="47.26163" lon="-1.12959">
        <ele>202</ele>
        <time>2018-03-10T17:28:21Z</time>
      </trkpt>
      <trkpt lat="47.26198" lon="-1.12962">
        <ele>203</ele>
        <time>2018-03-10T17:28:27Z</time>
      </trkpt>
      <trkpt lat="47.26203" lon="-1.12963">
        <ele>203</ele>
        <time>2018-03-10T17:28:28Z</time>
      </trkpt>
      <trkpt lat="47.26247" lon="-1.12969">
        <ele>203</ele>
        <time>2018-03-10T17:28:36Z</time>
      </trkpt>
      <trkpt lat="47.26293" lon="-1.12975">
        <ele>203</ele>
        <time>2018-03-10T17:28:45Z</time>
      </trkpt>
      <trkpt lat="47.26349" lon="-1.12983">
        <ele>204</ele>
        <time>2018-03-10T17:28:56Z</time>
      </trkpt>
      <trkpt lat="47.26354" lon="-1.12983">
        <ele>204</ele>
        <time>2018-03-10T17:28:57Z</time>
      </trkpt>
      <trkpt lat="47.26399" lon="-1.12991">
        <ele>203</ele>
        <time>2018-03-10T17:29:07Z</time>
      </trkpt>
      <trkpt lat="47.26413" lon="-1.12994">
        <ele>203</ele>
        <time>2018-03-10T17:29:10Z</time>
      </trkpt>
      <trkpt lat="47.26423" lon="-1.12996">
        <ele>203</ele>
        <time>2018-03-10T17:29:13Z</time>
      </trkpt>
      <trkpt lat="47.26441" lon="-1.13009">
        <ele>203</ele>
        <time>2018-03-10T17:29:18Z</time>
      </trkpt>
      <trkpt lat="47.26445" lon="-1.13011">
        <ele>203</ele>
        <time>2018-03-10T17:29:19Z</time>
      </trkpt>
      <trkpt lat="47.2648" lon="-1.1303">
        <ele>202</ele>
        <time>2018-03-10T17:29:26Z</time>
      </trkpt>
      <trkpt lat="47.26536" lon="-1.1306">
        <ele>202</ele>
        <time>2018-03-10T17:29:36Z</time>
      </trkpt>
      <trkpt lat="47.2658" lon="-1.13084">
        <ele>201</ele>
        <time>2018-03-10T17:29:44Z</time>
      </trkpt>
      <trkpt lat="47.26597" lon="-1.13093">
        <ele>201</ele>
        <time>2018-03-10T17:29:47Z</time>
      </trkpt>
      <trkpt lat="47.26625" lon="-1.13104">
        <ele>201</ele>
        <time>2018-03-10T17:29:52Z</time>
      </trkpt>
      <trkpt lat="47.26664" lon="-1.1311">
        <ele>200</ele>
        <time>2018-03-10T17:29:59Z</time>
      </trkpt>
      <trkpt lat="47.26716" lon="-1.13108">
        <ele>200</ele>
        <time>2018-03-10T17:30:08Z</time>
      </trkpt>
      <trkpt lat="47.26721" lon="-1.13108">
        <ele>200</ele>
        <time>2018-03-10T17:30:09Z</time>
      </trkpt>
      <trkpt lat="47.26764" lon="-1.13106">
        <ele>200</ele>
        <time>2018-03-10T17:30:17Z</time>
      </trkpt>
      <trkpt lat="47.26796" lon="-1.13115">
        <ele>200</ele>
        <time>2018-03-10T17:30:23Z</time>
      </trkpt>
      <trkpt lat="47.26839" lon="-1.13129">
        <ele>199</ele>
        <time>2018-03-10T17:30:31Z</time>
      </trkpt>
      <trkpt lat="47.26882" lon="-1.13145">
        <ele>199</ele>
        <time>2018-03-10T17:30:39Z</time>
      </trkpt>
      <trkpt lat="47.2693" lon="-1.13162">
        <ele>199</ele>
        <time>2018-03-10T17:30:48Z</time>
      </trkpt>
      <trkpt lat="47.26973" lon="-1.13175">
        <ele>199</ele>
        <time>2018-03-10T17:30:56Z</time>
      </trkpt>
      <trkpt lat="47.26978" lon="-1.13176">
        <ele>199</ele>
        <time>2018-03-10T17:30:57Z</time>
      </trkpt>
      <trkpt lat="47.2702" lon="-1.13176">
        <ele>198</ele>
        <time>2018-03-10T17:31:05Z</time>
      </trkpt>
      <trkpt lat="47.27051" lon="-1.13167">
        <ele>199</ele>
        <time>2018-03-10T17:31:11Z</time>
      </trkpt>
      <trkpt lat="47.27079" lon="-1.13147">
        <ele>199</ele>
        <time>2018-03-10T17:31:17Z</time>
      </trkpt>
      <trkpt lat="47.27104" lon="-1.13121">
        <ele>200</ele>
        <time>2018-03-10T17:31:23Z</time>
      </trkpt>
      <trkpt lat="47.27116" lon="-1.13107">
        <ele>200</ele>
        <time>2018-03-10T17:31:26Z</time>
      </trkpt>
      <trkpt lat="47.27148" lon="-1.13071">
        <ele>201</ele>
        <time>2018-03-10T17:31:34Z</time>
      </trkpt>
      <trkpt lat="47.27152" lon="-1.13066">
        <ele>201</ele>
        <time>2018-03-10T17:31:35Z</time>
      </trkpt>
      <trkpt lat="47.27181" lon="-1.13035">
        <ele>201</ele>
        <time>2018-03-10T17:31:42Z</time>
      </trkpt>
      <trkpt lat="47.27202" lon="-1.13015">
        <ele>202</ele>
        <time>2018-03-10T17:31:48Z</time>
      </trkpt>
      <trkpt lat="47.27205" lon="-1.13013">
        <ele>202</ele>
        <time>2018-03-10T17:31:49Z</time>
      </trkpt>
      <trkpt lat="47.27215" lon="-1.13009">
        <ele>202</ele>
        <time>2018-03-10T17:31:53Z</time>
      </trkpt>
      <trkpt lat="47.27217" lon="-1.13011">
        <ele>202</ele>
        <time>2018-03-10T17:31:54Z</time>
      </trkpt>
      <trkpt lat="47.2722" lon="-1.13025">
        <ele>202</ele>
        <time>2018-03-10T17:31:58Z</time>
      </trkpt>
      <trkpt lat="47.27219" lon="-1.1303">
        <ele>202</ele>
        <time>2018-03-10T17:31:59Z</time>
      </trkpt>
      <trkpt lat="47.27213" lon="-1.13057">
        <ele>202</ele>
        <time>2018-03-10T17:32:05Z</time>
      </trkpt>
      <trkpt lat="47.27202" lon="-1.13091">
        <ele>202</ele>
        <time>2018-03-10T17:32:12Z</time>
      </trkpt>
      <trkpt lat="47.27191" lon="-1.13117">
        <ele>202</ele>
        <time>2018-03-10T17:32:19Z</time>
      </trkpt>
      <trkpt lat="47.27179" lon="-1.13146">
        <ele>202</ele>
        <time>2018-03-10T17:32:26Z</time>
      </trkpt>
      <trkpt lat="47.2716" lon="-1.13192">
        <ele>202</ele>
        <time>2018-03-10T17:32:34Z</time>
      </trkpt>
      <trkpt lat="47.2713" lon="-1.13263">
        <ele>201</ele>
        <time>2018-03-10T17:32:44Z</time>
      </trkpt>
      <trkpt lat="47.27113" lon="-1.133">
        <ele>201</ele>
        <time>2018-03-10T17:32:49Z</time>
      </trkpt>
      <trkpt lat="47.27106" lon="-1.13317">
        <ele>201</ele>
        <time>2018-03-10T17:32:51Z</time>
      </trkpt>
      <trkpt lat="47.27082" lon="-1.13373">
        <ele>200</ele>
        <time>2018-03-10T17:32:58Z</time>
      </trkpt>
      <trkpt lat="47.27079" lon="-1.13381">
        <ele>200</ele>
        <time>2018-03-10T17:32:59Z</time>
      </trkpt>
      <trkpt lat="47.27057" lon="-1.13431">
        <ele>199</ele>
        <time>2018-03-10T17:33:06Z</time>
      </trkpt>
      <trkpt lat="47.27036" lon="-1.13479">
        <ele>199</ele>
        <time>2018-03-10T17:33:13Z</time>
      </trkpt>
      <trkpt lat="47.27019" lon="-1.13519">
        <ele>199</ele>
        <time>2018-03-10T17:33:19Z</time>
      </trkpt>
      <trkpt lat="47.27001" lon="-1.13561">
        <ele>199</ele>
        <time>2018-03-10T17:33:26Z</time>
      </trkpt>
      <trkpt lat="47.26994" lon="-1.13581">
        <ele>199</ele>
        <time>2018-03-10T17:33:30Z</time>
      </trkpt>
      <trkpt lat="47.26995" lon="-1.13585">
        <ele>199</ele>
        <time>2018-03-10T17:33:31Z</time>
      </trkpt>
      <trkpt lat="47.26997" lon="-1.13606">
        <ele>199</ele>
        <time>2018-03-10T17:33:36Z</time>
      </trkpt>
      <trkpt lat="47.26997" lon="-1.1361">
        <ele>199</ele>
        <time>2018-03-10T17:33:37Z</time>
      </trkpt>
      <trkpt lat="47.26991" lon="-1.13625">
        <ele>199</ele>
        <time>2018-03-10T17:33:41Z</time>
      </trkpt>
      <trkpt lat="47.26988" lon="-1.13628">
        <ele>199</ele>
        <time>2018-03-10T17:33:42Z</time>
      </trkpt>
      <trkpt lat="47.26971" lon="-1.13649">
        <ele>199</ele>
        <time>2018-03-10T17:33:48Z</time>
      </trkpt>
    </trkseg>
  </trk>
</gpx>